<?xml version='1.0' encoding='UTF-8'?><gpx version="1.1" creator="JPX - https://github.com/jenetics/jpx" xmlns="http://www.topografix.com/GPX/1/1"><trk><trkseg><trkpt lat="37.570745" lon="15.05362"><ele>403.0</ele><time>2026-05-05T17:33:35.968Z</time></trkpt><trkpt lat="37.5707833" lon="15.053705"><ele>403.0</ele><time>2026-05-05T17:33:38.969Z</time></trkpt><trkpt lat="37.5708321" lon="15.0537875"><ele>403.0</ele><time>2026-05-05T17:33:43.05Z</time></trkpt><trkpt lat="37.5708647" lon="15.0538589"><ele>403.0</ele><time>2026-05-05T17:33:44.985Z</time></trkpt><trkpt lat="37.570923" lon="15.0539394"><ele>403.0</ele><time>2026-05-05T17:33:48.001Z</time></trkpt><trkpt lat="37.5709829" lon="15.053972"><ele>403.0</ele><time>2026-05-05T17:33:51.964Z</time></trkpt><trkpt lat="37.5710462" lon="15.0539403"><ele>403.0</ele><time>2026-05-05T17:33:56.009Z</time></trkpt><trkpt lat="37.5711373" lon="15.0538633"><ele>403.6666666666667</ele><time>2026-05-05T17:33:58.98Z</time></trkpt><trkpt lat="37.5712024" lon="15.0537776"><ele>404.33333333333337</ele><time>2026-05-05T17:34:02.041Z</time></trkpt><trkpt lat="37.5712638" lon="15.0537241"><ele>405.0</ele><time>2026-05-05T17:34:03.979Z</time></trkpt><trkpt lat="37.5713228" lon="15.0536756"><ele>405.66666666666663</ele><time>2026-05-05T17:34:05.993Z</time></trkpt><trkpt lat="37.571389" lon="15.0536109"><ele>406.3333333333333</ele><time>2026-05-05T17:34:08.963Z</time></trkpt><trkpt lat="37.5714336" lon="15.0535491"><ele>407.0</ele><time>2026-05-05T17:34:12.026Z</time></trkpt><trkpt lat="37.571446" lon="15.0534594"><ele>406.99999999999994</ele><time>2026-05-05T17:34:19.043Z</time></trkpt><trkpt lat="37.571409" lon="15.0533844"><ele>407.0</ele><time>2026-05-05T17:34:22.009Z</time></trkpt><trkpt lat="37.5713107" lon="15.0532723"><ele>407.0</ele><time>2026-05-05T17:34:26.065Z</time></trkpt><trkpt lat="37.5712623" lon="15.0531808"><ele>407.0</ele><time>2026-05-05T17:34:28.042Z</time></trkpt><trkpt lat="37.571224" lon="15.0531143"><ele>406.99999999999994</ele><time>2026-05-05T17:34:30.043Z</time></trkpt><trkpt lat="37.571181" lon="15.0530186"><ele>407.0</ele><time>2026-05-05T17:34:32.962Z</time></trkpt><trkpt lat="37.5711316" lon="15.0529224"><ele>406.66666666666663</ele><time>2026-05-05T17:34:36.049Z</time></trkpt><trkpt lat="37.5710895" lon="15.0528386"><ele>406.3333333333333</ele><time>2026-05-05T17:34:38.968Z</time></trkpt><trkpt lat="37.5710473" lon="15.0527599"><ele>406.0</ele><time>2026-05-05T17:34:42.059Z</time></trkpt><trkpt lat="37.5709877" lon="15.0527269"><ele>405.66666666666663</ele><time>2026-05-05T17:34:44.994Z</time></trkpt><trkpt lat="37.5709174" lon="15.0527537"><ele>405.3333333333333</ele><time>2026-05-05T17:34:48.009Z</time></trkpt><trkpt lat="37.5708557" lon="15.0528208"><ele>405.0</ele><time>2026-05-05T17:34:51.026Z</time></trkpt><trkpt lat="37.5707695" lon="15.0528765"><ele>404.99999999999994</ele><time>2026-05-05T17:34:54.061Z</time></trkpt><trkpt lat="37.5706976" lon="15.0529446"><ele>405.0</ele><time>2026-05-05T17:34:57.021Z</time></trkpt><trkpt lat="37.5706365" lon="15.0529959"><ele>405.0</ele><time>2026-05-05T17:34:59.963Z</time></trkpt><trkpt lat="37.5705765" lon="15.0530262"><ele>405.0</ele><time>2026-05-05T17:35:02.985Z</time></trkpt><trkpt lat="37.5705122" lon="15.0530589"><ele>405.0</ele><time>2026-05-05T17:35:06.002Z</time></trkpt><trkpt lat="37.570483" lon="15.0531396"><ele>404.99999999999994</ele><time>2026-05-05T17:35:09.017Z</time></trkpt><trkpt lat="37.5705087" lon="15.0532324"><ele>405.0</ele><time>2026-05-05T17:35:12.033Z</time></trkpt><trkpt lat="37.5705526" lon="15.0533255"><ele>404.71428571428567</ele><time>2026-05-05T17:35:15.115Z</time></trkpt><trkpt lat="37.5705928" lon="15.0534085"><ele>404.42857142857144</ele><time>2026-05-05T17:35:18.323Z</time></trkpt><trkpt lat="37.5706308" lon="15.0534971"><ele>404.1428571428571</ele><time>2026-05-05T17:35:22.017Z</time></trkpt><trkpt lat="37.5706811" lon="15.0535843"><ele>403.85714285714283</ele><time>2026-05-05T17:35:25.969Z</time></trkpt><trkpt lat="37.5707164" lon="15.0536618"><ele>403.57142857142856</ele><time>2026-05-05T17:35:28.985Z</time></trkpt><trkpt lat="37.5707487" lon="15.0537325"><ele>403.2857142857143</ele><time>2026-05-05T17:35:32.002Z</time></trkpt><trkpt lat="37.5707871" lon="15.0538034"><ele>403.0</ele><time>2026-05-05T17:35:35.017Z</time></trkpt><trkpt lat="37.5708231" lon="15.0538752"><ele>403.0</ele><time>2026-05-05T17:35:38.004Z</time></trkpt><trkpt lat="37.5708615" lon="15.0539488"><ele>403.0</ele><time>2026-05-05T17:35:41.98Z</time></trkpt><trkpt lat="37.5709071" lon="15.0540303"><ele>403.0</ele><time>2026-05-05T17:35:45.938Z</time></trkpt><trkpt lat="37.5709698" lon="15.0540526"><ele>403.0</ele><time>2026-05-05T17:35:53.059Z</time></trkpt><trkpt lat="37.5710897" lon="15.0539263"><ele>403.0</ele><time>2026-05-05T17:35:57.065Z</time></trkpt><trkpt lat="37.5711546" lon="15.0538592"><ele>403.5714285714286</ele><time>2026-05-05T17:35:59.043Z</time></trkpt><trkpt lat="37.5712179" lon="15.0538167"><ele>404.1428571428571</ele><time>2026-05-05T17:36:01.017Z</time></trkpt><trkpt lat="37.5712697" lon="15.053768"><ele>404.7142857142857</ele><time>2026-05-05T17:36:02.993Z</time></trkpt><trkpt lat="37.571323" lon="15.0537088"><ele>405.28571428571433</ele><time>2026-05-05T17:36:06.083Z</time></trkpt><trkpt lat="37.5713725" lon="15.0536579"><ele>405.8571428571429</ele><time>2026-05-05T17:36:09.099Z</time></trkpt><trkpt lat="37.5714267" lon="15.0535879"><ele>406.42857142857144</ele><time>2026-05-05T17:36:12.977Z</time></trkpt><trkpt lat="37.571469" lon="15.0535283"><ele>407.0</ele><time>2026-05-05T17:36:16.284Z</time></trkpt><trkpt lat="37.5715372" lon="15.053514"><ele>406.99999999999994</ele><time>2026-05-05T17:36:24.105Z</time></trkpt><trkpt lat="37.5714717" lon="15.0534272"><ele>407.0</ele><time>2026-05-05T17:36:27.939Z</time></trkpt><trkpt lat="37.5714107" lon="15.0533342"><ele>407.0</ele><time>2026-05-05T17:36:31.073Z</time></trkpt><trkpt lat="37.5713688" lon="15.0532688"><ele>407.0</ele><time>2026-05-05T17:36:33.049Z</time></trkpt><trkpt lat="37.5713163" lon="15.0532047"><ele>406.99999999999994</ele><time>2026-05-05T17:36:35.045Z</time></trkpt><trkpt lat="37.571272" lon="15.0531423"><ele>407.0</ele><time>2026-05-05T17:36:37Z</time></trkpt><trkpt lat="37.571222" lon="15.0530508"><ele>406.66666666666663</ele><time>2026-05-05T17:36:40.017Z</time></trkpt><trkpt lat="37.5711745" lon="15.0529617"><ele>406.3333333333333</ele><time>2026-05-05T17:36:42.939Z</time></trkpt><trkpt lat="37.5711335" lon="15.0528898"><ele>406.0</ele><time>2026-05-05T17:36:45.939Z</time></trkpt><trkpt lat="37.5710892" lon="15.0528143"><ele>405.66666666666663</ele><time>2026-05-05T17:36:50.001Z</time></trkpt><trkpt lat="37.5710293" lon="15.0527624"><ele>405.3333333333333</ele><time>2026-05-05T17:36:54.057Z</time></trkpt><trkpt lat="37.5709606" lon="15.0527535"><ele>405.0</ele><time>2026-05-05T17:36:57.074Z</time></trkpt><trkpt lat="37.5708804" lon="15.0527903"><ele>405.0</ele><time>2026-05-05T17:37:00.089Z</time></trkpt><trkpt lat="37.5708001" lon="15.0528264"><ele>405.0</ele><time>2026-05-05T17:37:03Z</time></trkpt><trkpt lat="37.5707282" lon="15.0529008"><ele>405.0</ele><time>2026-05-05T17:37:06.016Z</time></trkpt><trkpt lat="37.5706599" lon="15.0529692"><ele>405.0</ele><time>2026-05-05T17:37:09.033Z</time></trkpt><trkpt lat="37.57059" lon="15.0530221"><ele>405.0</ele><time>2026-05-05T17:37:12.048Z</time></trkpt><trkpt lat="37.5705283" lon="15.05309"><ele>405.0</ele><time>2026-05-05T17:37:16Z</time></trkpt><trkpt lat="37.5705043" lon="15.0531637"><ele>404.99999999999994</ele><time>2026-05-05T17:37:19.016Z</time></trkpt><trkpt lat="37.5705147" lon="15.0532585"><ele>405.0</ele><time>2026-05-05T17:37:23.072Z</time></trkpt><trkpt lat="37.5705637" lon="15.0533462"><ele>405.0</ele><time>2026-05-05T17:37:27.059Z</time></trkpt><trkpt lat="37.5706017" lon="15.0534203"><ele>405.0</ele><time>2026-05-05T17:37:30.059Z</time></trkpt><trkpt lat="37.5706469" lon="15.0534923"><ele>405.0</ele><time>2026-05-05T17:37:33.058Z</time></trkpt><trkpt lat="37.5706822" lon="15.0535621"><ele>404.99999999999994</ele><time>2026-05-05T17:37:36.059Z</time></trkpt><trkpt lat="37.570717" lon="15.0536288"><ele>405.0</ele><time>2026-05-05T17:37:39.006Z</time></trkpt><trkpt lat="37.5707514" lon="15.0536975"><ele>404.71428571428567</ele><time>2026-05-05T17:37:41.98Z</time></trkpt><trkpt lat="37.5707877" lon="15.053773"><ele>404.42857142857144</ele><time>2026-05-05T17:37:45.017Z</time></trkpt><trkpt lat="37.5708223" lon="15.053843"><ele>404.1428571428571</ele><time>2026-05-05T17:37:47.964Z</time></trkpt><trkpt lat="37.5708614" lon="15.0539217"><ele>403.85714285714283</ele><time>2026-05-05T17:37:51.048Z</time></trkpt><trkpt lat="37.5709009" lon="15.0539958"><ele>403.57142857142856</ele><time>2026-05-05T17:37:54.065Z</time></trkpt><trkpt lat="37.5709571" lon="15.0540398"><ele>403.2857142857143</ele><time>2026-05-05T17:37:57.965Z</time></trkpt><trkpt lat="37.5710378" lon="15.0539822"><ele>403.0</ele><time>2026-05-05T17:38:03.966Z</time></trkpt><trkpt lat="37.5711115" lon="15.0539262"><ele>403.00000000000006</ele><time>2026-05-05T17:38:07.004Z</time></trkpt><trkpt lat="37.5711849" lon="15.0538689"><ele>403.0</ele><time>2026-05-05T17:38:10.083Z</time></trkpt><trkpt lat="37.5712465" lon="15.0538162"><ele>403.0</ele><time>2026-05-05T17:38:12.993Z</time></trkpt><trkpt lat="37.5713071" lon="15.0537668"><ele>403.0</ele><time>2026-05-05T17:38:16.009Z</time></trkpt><trkpt lat="37.5713642" lon="15.0537144"><ele>403.00000000000006</ele><time>2026-05-05T17:38:19.025Z</time></trkpt><trkpt lat="37.5714227" lon="15.0536503"><ele>403.0</ele><time>2026-05-05T17:38:23.081Z</time></trkpt><trkpt lat="37.5714635" lon="15.05358"><ele>403.5714285714286</ele><time>2026-05-05T17:38:26.923Z</time></trkpt><trkpt lat="37.5714616" lon="15.0534965"><ele>404.1428571428571</ele><time>2026-05-05T17:38:35.035Z</time></trkpt><trkpt lat="37.5714414" lon="15.0534054"><ele>404.7142857142857</ele><time>2026-05-05T17:38:38.993Z</time></trkpt><trkpt lat="37.5713669" lon="15.0533288"><ele>405.28571428571433</ele><time>2026-05-05T17:38:39.915Z</time></trkpt><trkpt lat="37.5713212" lon="15.0532675"><ele>405.8571428571429</ele><time>2026-05-05T17:38:41.101Z</time></trkpt><trkpt lat="37.5712642" lon="15.0532027"><ele>406.42857142857144</ele><time>2026-05-05T17:38:43.049Z</time></trkpt><trkpt lat="37.5712256" lon="15.0531317"><ele>407.0</ele><time>2026-05-05T17:38:45.026Z</time></trkpt><trkpt lat="37.5711925" lon="15.0530617"><ele>406.66666666666663</ele><time>2026-05-05T17:38:47.001Z</time></trkpt><trkpt lat="37.5711571" lon="15.052969"><ele>406.3333333333333</ele><time>2026-05-05T17:38:50.017Z</time></trkpt><trkpt lat="37.5711265" lon="15.0528826"><ele>406.0</ele><time>2026-05-05T17:38:53.034Z</time></trkpt><trkpt lat="37.5710864" lon="15.0527881"><ele>405.66666666666663</ele><time>2026-05-05T17:38:57.088Z</time></trkpt><trkpt lat="37.5710429" lon="15.0527234"><ele>405.3333333333333</ele><time>2026-05-05T17:39:00.001Z</time></trkpt><trkpt lat="37.5709741" lon="15.0527201"><ele>405.0</ele><time>2026-05-05T17:39:04.044Z</time></trkpt><trkpt lat="37.5709077" lon="15.0527769"><ele>405.0</ele><time>2026-05-05T17:39:08.009Z</time></trkpt><trkpt lat="37.5708456" lon="15.0528273"><ele>405.0</ele><time>2026-05-05T17:39:11.025Z</time></trkpt><trkpt lat="37.5707886" lon="15.0528859"><ele>405.0</ele><time>2026-05-05T17:39:13.939Z</time></trkpt><trkpt lat="37.5707136" lon="15.0529488"><ele>405.0</ele><time>2026-05-05T17:39:17.057Z</time></trkpt><trkpt lat="37.5706385" lon="15.0530023"><ele>405.0</ele><time>2026-05-05T17:39:20.073Z</time></trkpt><trkpt lat="37.57058" lon="15.0530484"><ele>405.0</ele><time>2026-05-05T17:39:23.085Z</time></trkpt><trkpt lat="37.5705357" lon="15.0531222"><ele>404.99999999999994</ele><time>2026-05-05T17:39:27.041Z</time></trkpt><trkpt lat="37.5705314" lon="15.0532138"><ele>405.0</ele><time>2026-05-05T17:39:30.058Z</time></trkpt><trkpt lat="37.5705527" lon="15.0533104"><ele>405.0</ele><time>2026-05-05T17:39:33.072Z</time></trkpt><trkpt lat="37.5706009" lon="15.0533949"><ele>405.0</ele><time>2026-05-05T17:39:37.025Z</time></trkpt><trkpt lat="37.5706331" lon="15.0534636"><ele>405.0</ele><time>2026-05-05T17:39:40.042Z</time></trkpt><trkpt lat="37.5706708" lon="15.0535389"><ele>404.99999999999994</ele><time>2026-05-05T17:39:43.056Z</time></trkpt><trkpt lat="37.5707091" lon="15.0536136"><ele>405.0</ele><time>2026-05-05T17:39:46.072Z</time></trkpt><trkpt lat="37.5707512" lon="15.053698"><ele>404.6666666666667</ele><time>2026-05-05T17:39:50.024Z</time></trkpt><trkpt lat="37.5707901" lon="15.0537824"><ele>404.33333333333337</ele><time>2026-05-05T17:39:54.08Z</time></trkpt><trkpt lat="37.5708241" lon="15.0538536"><ele>404.0</ele><time>2026-05-05T17:39:56.993Z</time></trkpt><trkpt lat="37.5708686" lon="15.0539348"><ele>403.6666666666667</ele><time>2026-05-05T17:40:00.009Z</time></trkpt><trkpt lat="37.5709212" lon="15.0539975"><ele>403.33333333333337</ele><time>2026-05-05T17:40:03.024Z</time></trkpt><trkpt lat="37.5709752" lon="15.0540427"><ele>403.0</ele><time>2026-05-05T17:40:07.08Z</time></trkpt><trkpt lat="37.5710438" lon="15.0539521"><ele>403.00000000000006</ele><time>2026-05-05T17:40:13.008Z</time></trkpt><trkpt lat="37.5711204" lon="15.0539101"><ele>403.0</ele><time>2026-05-05T17:40:15.088Z</time></trkpt><trkpt lat="37.5711833" lon="15.0538637"><ele>403.0</ele><time>2026-05-05T17:40:17.086Z</time></trkpt><trkpt lat="37.5712375" lon="15.0538152"><ele>403.0</ele><time>2026-05-05T17:40:19.041Z</time></trkpt><trkpt lat="37.5713093" lon="15.0537442"><ele>403.00000000000006</ele><time>2026-05-05T17:40:22.004Z</time></trkpt><trkpt lat="37.5713766" lon="15.0536845"><ele>403.0</ele><time>2026-05-05T17:40:25.059Z</time></trkpt><trkpt lat="37.5714332" lon="15.0536285"><ele>403.6666666666667</ele><time>2026-05-05T17:40:29.025Z</time></trkpt><trkpt lat="37.5714567" lon="15.0535429"><ele>404.33333333333337</ele><time>2026-05-05T17:40:34.016Z</time></trkpt><trkpt lat="37.5714319" lon="15.0534608"><ele>405.0</ele><time>2026-05-05T17:40:48.057Z</time></trkpt><trkpt lat="37.5713671" lon="15.0533435"><ele>405.66666666666663</ele><time>2026-05-05T17:40:50.034Z</time></trkpt><trkpt lat="37.571331" lon="15.0532282"><ele>406.3333333333333</ele><time>2026-05-05T17:40:52.018Z</time></trkpt><trkpt lat="37.5712967" lon="15.0531446"><ele>407.0</ele><time>2026-05-05T17:40:55.046Z</time></trkpt><trkpt lat="37.5712382" lon="15.0530394"><ele>407.28571428571433</ele><time>2026-05-05T17:40:58.083Z</time></trkpt><trkpt lat="37.5711984" lon="15.0529661"><ele>407.57142857142856</ele><time>2026-05-05T17:40:59.081Z</time></trkpt><trkpt lat="37.5711521" lon="15.0529071"><ele>407.8571428571429</ele><time>2026-05-05T17:41:01.058Z</time></trkpt><trkpt lat="37.5711088" lon="15.0528252"><ele>408.14285714285717</ele><time>2026-05-05T17:41:03.969Z</time></trkpt><trkpt lat="37.5710711" lon="15.052759"><ele>408.42857142857144</ele><time>2026-05-05T17:41:06.986Z</time></trkpt><trkpt lat="37.5710085" lon="15.0527308"><ele>408.7142857142857</ele><time>2026-05-05T17:41:10.002Z</time></trkpt><trkpt lat="37.5709405" lon="15.0527536"><ele>409.0</ele><time>2026-05-05T17:41:13.017Z</time></trkpt><trkpt lat="37.5708821" lon="15.0528091"><ele>408.4285714285714</ele><time>2026-05-05T17:41:15.915Z</time></trkpt><trkpt lat="37.5708272" lon="15.0528524"><ele>407.8571428571429</ele><time>2026-05-05T17:41:18.94Z</time></trkpt><trkpt lat="37.5707697" lon="15.0529045"><ele>407.2857142857143</ele><time>2026-05-05T17:41:21.966Z</time></trkpt><trkpt lat="37.5707052" lon="15.0529534"><ele>406.71428571428567</ele><time>2026-05-05T17:41:24.977Z</time></trkpt><trkpt lat="37.570643" lon="15.0529989"><ele>406.1428571428571</ele><time>2026-05-05T17:41:27.993Z</time></trkpt><trkpt lat="37.5705834" lon="15.0530571"><ele>405.57142857142856</ele><time>2026-05-05T17:41:31.01Z</time></trkpt><trkpt lat="37.5705392" lon="15.0531295"><ele>405.0</ele><time>2026-05-05T17:41:34.025Z</time></trkpt><trkpt lat="37.5705379" lon="15.0532138"><ele>404.71428571428567</ele><time>2026-05-05T17:41:37.041Z</time></trkpt><trkpt lat="37.570562" lon="15.0532891"><ele>404.42857142857144</ele><time>2026-05-05T17:41:40.057Z</time></trkpt><trkpt lat="37.5705863" lon="15.053383"><ele>404.1428571428571</ele><time>2026-05-05T17:41:43.915Z</time></trkpt><trkpt lat="37.5706197" lon="15.0534542"><ele>403.85714285714283</ele><time>2026-05-05T17:41:46.956Z</time></trkpt><trkpt lat="37.5706548" lon="15.0535277"><ele>403.57142857142856</ele><time>2026-05-05T17:41:49.979Z</time></trkpt><trkpt lat="37.5706958" lon="15.0536092"><ele>403.2857142857143</ele><time>2026-05-05T17:41:53.994Z</time></trkpt><trkpt lat="37.5707372" lon="15.0536977"><ele>403.0</ele><time>2026-05-05T17:41:58.048Z</time></trkpt><trkpt lat="37.570783" lon="15.0537855"><ele>403.0</ele><time>2026-05-05T17:42:02.001Z</time></trkpt><trkpt lat="37.5708162" lon="15.0538573"><ele>403.0</ele><time>2026-05-05T17:42:04.899Z</time></trkpt><trkpt lat="37.5708532" lon="15.0539272"><ele>403.0</ele><time>2026-05-05T17:42:08.034Z</time></trkpt><trkpt lat="37.5708958" lon="15.0539887"><ele>403.0</ele><time>2026-05-05T17:42:11.05Z</time></trkpt><trkpt lat="37.5709508" lon="15.0540391"><ele>403.0</ele><time>2026-05-05T17:42:14.995Z</time></trkpt><trkpt lat="37.571038" lon="15.0540089"><ele>403.0</ele><time>2026-05-05T17:42:23.009Z</time></trkpt><trkpt lat="37.5711063" lon="15.0539562"><ele>403.0</ele><time>2026-05-05T17:42:25.179Z</time></trkpt><trkpt lat="37.5711611" lon="15.0538939"><ele>403.6666666666667</ele><time>2026-05-05T17:42:26.363Z</time></trkpt><trkpt lat="37.5712306" lon="15.053807"><ele>404.33333333333337</ele><time>2026-05-05T17:42:28.66Z</time></trkpt><trkpt lat="37.571296" lon="15.0537498"><ele>405.0</ele><time>2026-05-05T17:42:30.923Z</time></trkpt><trkpt lat="37.5713627" lon="15.0536928"><ele>405.66666666666663</ele><time>2026-05-05T17:42:33.94Z</time></trkpt><trkpt lat="37.5714236" lon="15.053635"><ele>406.3333333333333</ele><time>2026-05-05T17:42:36.939Z</time></trkpt><trkpt lat="37.5714674" lon="15.0535763"><ele>407.0</ele><time>2026-05-05T17:42:39.979Z</time></trkpt><trkpt lat="37.571486" lon="15.0534851"><ele>406.99999999999994</ele><time>2026-05-05T17:42:44.923Z</time></trkpt><trkpt lat="37.5714988" lon="15.0535742"><ele>407.0</ele><time>2026-05-05T17:42:47.033Z</time></trkpt><trkpt lat="37.5714452" lon="15.0536168"><ele>407.0</ele><time>2026-05-05T17:42:53.065Z</time></trkpt><trkpt lat="37.5714257" lon="15.0534975"><ele>407.0</ele><time>2026-05-05T17:42:55.977Z</time></trkpt><trkpt lat="37.5713897" lon="15.053406"><ele>406.99999999999994</ele><time>2026-05-05T17:42:58.057Z</time></trkpt><trkpt lat="37.5713329" lon="15.0532724"><ele>407.0</ele><time>2026-05-05T17:43:01.075Z</time></trkpt><trkpt lat="37.5712928" lon="15.0531775"><ele>407.3333333333333</ele><time>2026-05-05T17:43:03.05Z</time></trkpt><trkpt lat="37.5712352" lon="15.0530888"><ele>407.66666666666663</ele><time>2026-05-05T17:43:05.967Z</time></trkpt><trkpt lat="37.5711839" lon="15.0529991"><ele>408.0</ele><time>2026-05-05T17:43:08.977Z</time></trkpt><trkpt lat="37.5711385" lon="15.0529094"><ele>408.33333333333337</ele><time>2026-05-05T17:43:11.992Z</time></trkpt><trkpt lat="37.5710989" lon="15.0528303"><ele>408.6666666666667</ele><time>2026-05-05T17:43:15.008Z</time></trkpt><trkpt lat="37.5710395" lon="15.0527747"><ele>409.0</ele><time>2026-05-05T17:43:18.963Z</time></trkpt><trkpt lat="37.5709632" lon="15.0527802"><ele>408.4285714285714</ele><time>2026-05-05T17:43:23.06Z</time></trkpt><trkpt lat="37.5708992" lon="15.0527801"><ele>407.8571428571429</ele><time>2026-05-05T17:43:26.059Z</time></trkpt><trkpt lat="37.5708371" lon="15.0528148"><ele>407.2857142857143</ele><time>2026-05-05T17:43:29.1Z</time></trkpt><trkpt lat="37.5707713" lon="15.0528626"><ele>406.71428571428567</ele><time>2026-05-05T17:43:32.38Z</time></trkpt><trkpt lat="37.5707133" lon="15.0529086"><ele>406.1428571428571</ele><time>2026-05-05T17:43:35.683Z</time></trkpt><trkpt lat="37.5706485" lon="15.0529622"><ele>405.57142857142856</ele><time>2026-05-05T17:43:39.06Z</time></trkpt><trkpt lat="37.5705907" lon="15.0530035"><ele>405.0</ele><time>2026-05-05T17:43:42.045Z</time></trkpt><trkpt lat="37.570529" lon="15.0530532"><ele>404.99999999999994</ele><time>2026-05-05T17:43:45.019Z</time></trkpt><trkpt lat="37.5704924" lon="15.0531273"><ele>405.0</ele><time>2026-05-05T17:43:48.099Z</time></trkpt><trkpt lat="37.5704938" lon="15.0532123"><ele>405.0</ele><time>2026-05-05T17:43:50.993Z</time></trkpt><trkpt lat="37.5705285" lon="15.0532941"><ele>405.0</ele><time>2026-05-05T17:43:54.009Z</time></trkpt><trkpt lat="37.5705629" lon="15.0533633"><ele>405.0</ele><time>2026-05-05T17:43:57.025Z</time></trkpt><trkpt lat="37.5706118" lon="15.0534437"><ele>404.99999999999994</ele><time>2026-05-05T17:44:01.019Z</time></trkpt><trkpt lat="37.5706498" lon="15.0535124"><ele>405.0</ele><time>2026-05-05T17:44:04.043Z</time></trkpt><trkpt lat="37.5706923" lon="15.0535976"><ele>404.71428571428567</ele><time>2026-05-05T17:44:08.049Z</time></trkpt><trkpt lat="37.5707334" lon="15.0536806"><ele>404.42857142857144</ele><time>2026-05-05T17:44:12.001Z</time></trkpt><trkpt lat="37.5707708" lon="15.0537541"><ele>404.1428571428571</ele><time>2026-05-05T17:44:15.003Z</time></trkpt><trkpt lat="37.5708037" lon="15.0538246"><ele>403.85714285714283</ele><time>2026-05-05T17:44:18.043Z</time></trkpt><trkpt lat="37.5708387" lon="15.0538933"><ele>403.57142857142856</ele><time>2026-05-05T17:44:21.083Z</time></trkpt><trkpt lat="37.5708752" lon="15.0539601"><ele>403.2857142857143</ele><time>2026-05-05T17:44:24.064Z</time></trkpt><trkpt lat="37.5709318" lon="15.0540194"><ele>403.0</ele><time>2026-05-05T17:44:28.003Z</time></trkpt><trkpt lat="37.5710094" lon="15.054005"><ele>403.00000000000006</ele><time>2026-05-05T17:44:38.001Z</time></trkpt><trkpt lat="37.5711206" lon="15.0538828"><ele>403.0</ele><time>2026-05-05T17:44:42.099Z</time></trkpt><trkpt lat="37.5711749" lon="15.0538407"><ele>403.0</ele><time>2026-05-05T17:44:43.204Z</time></trkpt><trkpt lat="37.5712514" lon="15.0538042"><ele>403.0</ele><time>2026-05-05T17:44:45.485Z</time></trkpt><trkpt lat="37.5713095" lon="15.0537554"><ele>403.00000000000006</ele><time>2026-05-05T17:44:47.78Z</time></trkpt><trkpt lat="37.5713596" lon="15.0537072"><ele>403.0</ele><time>2026-05-05T17:44:50.06Z</time></trkpt><trkpt lat="37.571416" lon="15.0536486"><ele>403.79999999999995</ele><time>2026-05-05T17:44:52.977Z</time></trkpt><trkpt lat="37.5714558" lon="15.0535854"><ele>404.6</ele><time>2026-05-05T17:44:57.034Z</time></trkpt><trkpt lat="37.5715256" lon="15.05356"><ele>405.4</ele><time>2026-05-05T17:45:10.019Z</time></trkpt><trkpt lat="37.5714509" lon="15.0534876"><ele>406.20000000000005</ele><time>2026-05-05T17:45:13.986Z</time></trkpt><trkpt lat="37.5713788" lon="15.0533313"><ele>407.0</ele><time>2026-05-05T17:45:17.075Z</time></trkpt><trkpt lat="37.5713211" lon="15.0532423"><ele>407.3333333333333</ele><time>2026-05-05T17:45:19.005Z</time></trkpt><trkpt lat="37.5712862" lon="15.0531637"><ele>407.66666666666663</ele><time>2026-05-05T17:45:21.057Z</time></trkpt><trkpt lat="37.5712397" lon="15.0530963"><ele>408.0</ele><time>2026-05-05T17:45:23.034Z</time></trkpt><trkpt lat="37.5711982" lon="15.0530241"><ele>408.33333333333337</ele><time>2026-05-05T17:45:25.019Z</time></trkpt><trkpt lat="37.5711506" lon="15.0529254"><ele>408.6666666666667</ele><time>2026-05-05T17:45:28.044Z</time></trkpt><trkpt lat="37.5711068" lon="15.0528437"><ele>409.0</ele><time>2026-05-05T17:45:32.082Z</time></trkpt><trkpt lat="37.5710598" lon="15.0527835"><ele>408.33333333333337</ele><time>2026-05-05T17:45:35.964Z</time></trkpt><trkpt lat="37.5709862" lon="15.0527676"><ele>407.6666666666667</ele><time>2026-05-05T17:45:40.09Z</time></trkpt><trkpt lat="37.570921" lon="15.0527987"><ele>407.0</ele><time>2026-05-05T17:45:43.002Z</time></trkpt><trkpt lat="37.5708451" lon="15.0528446"><ele>406.33333333333337</ele><time>2026-05-05T17:45:46.017Z</time></trkpt><trkpt lat="37.5707796" lon="15.0528859"><ele>405.6666666666667</ele><time>2026-05-05T17:45:49.032Z</time></trkpt><trkpt lat="37.5707099" lon="15.0529439"><ele>405.0</ele><time>2026-05-05T17:45:52.984Z</time></trkpt><trkpt lat="37.5706475" lon="15.0529957"><ele>405.0</ele><time>2026-05-05T17:45:57.043Z</time></trkpt><trkpt lat="37.5705859" lon="15.0530469"><ele>405.0</ele><time>2026-05-05T17:46:00.994Z</time></trkpt><trkpt lat="37.570544" lon="15.053114"><ele>405.0</ele><time>2026-05-05T17:46:04.084Z</time></trkpt><trkpt lat="37.5705136" lon="15.0531993"><ele>405.0</ele><time>2026-05-05T17:46:07.059Z</time></trkpt><trkpt lat="37.5705305" lon="15.0532997"><ele>405.0</ele><time>2026-05-05T17:46:10.043Z</time></trkpt><trkpt lat="37.5705647" lon="15.0533759"><ele>405.0</ele><time>2026-05-05T17:46:13.003Z</time></trkpt><trkpt lat="37.5706104" lon="15.0534683"><ele>404.71428571428567</ele><time>2026-05-05T17:46:17.059Z</time></trkpt><trkpt lat="37.5706433" lon="15.0535434"><ele>404.42857142857144</ele><time>2026-05-05T17:46:20.044Z</time></trkpt><trkpt lat="37.5706786" lon="15.0536158"><ele>404.1428571428571</ele><time>2026-05-05T17:46:23.044Z</time></trkpt><trkpt lat="37.570714" lon="15.0536876"><ele>403.85714285714283</ele><time>2026-05-05T17:46:26.056Z</time></trkpt><trkpt lat="37.5707481" lon="15.0537558"><ele>403.57142857142856</ele><time>2026-05-05T17:46:29.073Z</time></trkpt><trkpt lat="37.5707838" lon="15.0538266"><ele>403.2857142857143</ele><time>2026-05-05T17:46:32.005Z</time></trkpt><trkpt lat="37.5708197" lon="15.0538975"><ele>403.0</ele><time>2026-05-05T17:46:35.003Z</time></trkpt><trkpt lat="37.5708576" lon="15.0539702"><ele>403.0</ele><time>2026-05-05T17:46:38.017Z</time></trkpt><trkpt lat="37.5709107" lon="15.054038"><ele>403.0</ele><time>2026-05-05T17:46:41.684Z</time></trkpt><trkpt lat="37.5709806" lon="15.0540621"><ele>403.0</ele><time>2026-05-05T17:46:48.001Z</time></trkpt><trkpt lat="37.5710544" lon="15.0540215"><ele>403.0</ele><time>2026-05-05T17:46:51.018Z</time></trkpt><trkpt lat="37.5711101" lon="15.0539836"><ele>403.0</ele><time>2026-05-05T17:46:52.962Z</time></trkpt><trkpt lat="37.5711662" lon="15.0539259"><ele>403.0</ele><time>2026-05-05T17:46:55.073Z</time></trkpt><trkpt lat="37.5712248" lon="15.0538727"><ele>403.0</ele><time>2026-05-05T17:46:57.1Z</time></trkpt><trkpt lat="37.5713047" lon="15.0538074"><ele>403.6666666666667</ele><time>2026-05-05T17:47:00.1Z</time></trkpt><trkpt lat="37.5713707" lon="15.0537533"><ele>404.33333333333337</ele><time>2026-05-05T17:47:03.044Z</time></trkpt><trkpt lat="37.5714366" lon="15.0536931"><ele>405.0</ele><time>2026-05-05T17:47:07.085Z</time></trkpt><trkpt lat="37.5714729" lon="15.0536255"><ele>405.66666666666663</ele><time>2026-05-05T17:47:10.984Z</time></trkpt><trkpt lat="37.571528" lon="15.0535687"><ele>406.3333333333333</ele><time>2026-05-05T17:47:16.019Z</time></trkpt><trkpt lat="37.5714876" lon="15.0534586"><ele>407.0</ele><time>2026-05-05T17:47:28.035Z</time></trkpt><trkpt lat="37.5714268" lon="15.0533778"><ele>406.99999999999994</ele><time>2026-05-05T17:47:30.017Z</time></trkpt><trkpt lat="37.5713853" lon="15.0533148"><ele>407.0</ele><time>2026-05-05T17:47:32.923Z</time></trkpt><trkpt lat="37.5713422" lon="15.0532384"><ele>407.0</ele><time>2026-05-05T17:47:34.084Z</time></trkpt><trkpt lat="37.5712847" lon="15.0531567"><ele>407.0</ele><time>2026-05-05T17:47:35.923Z</time></trkpt><trkpt lat="37.5712375" lon="15.0530571"><ele>406.99999999999994</ele><time>2026-05-05T17:47:39.065Z</time></trkpt><trkpt lat="37.5711849" lon="15.0529761"><ele>407.0</ele><time>2026-05-05T17:47:41.976Z</time></trkpt><trkpt lat="37.5711572" lon="15.0528977"><ele>406.7142857142857</ele><time>2026-05-05T17:47:44.992Z</time></trkpt><trkpt lat="37.5711106" lon="15.0528427"><ele>406.42857142857144</ele><time>2026-05-05T17:47:48.008Z</time></trkpt><trkpt lat="37.5710432" lon="15.0528113"><ele>406.1428571428571</ele><time>2026-05-05T17:47:51.024Z</time></trkpt><trkpt lat="37.5709672" lon="15.0528102"><ele>405.8571428571429</ele><time>2026-05-05T17:47:54.04Z</time></trkpt><trkpt lat="37.5708998" lon="15.052822"><ele>405.57142857142856</ele><time>2026-05-05T17:47:57.057Z</time></trkpt><trkpt lat="37.5708299" lon="15.0528419"><ele>405.2857142857143</ele><time>2026-05-05T17:48:00.073Z</time></trkpt><trkpt lat="37.5707618" lon="15.0528856"><ele>405.0</ele><time>2026-05-05T17:48:03.09Z</time></trkpt><trkpt lat="37.5707056" lon="15.0529362"><ele>404.99999999999994</ele><time>2026-05-05T17:48:06.001Z</time></trkpt><trkpt lat="37.5706513" lon="15.0529843"><ele>405.0</ele><time>2026-05-05T17:48:09.017Z</time></trkpt><trkpt lat="37.5705919" lon="15.0530309"><ele>405.0</ele><time>2026-05-05T17:48:12.033Z</time></trkpt><trkpt lat="37.5705345" lon="15.053098"><ele>405.0</ele><time>2026-05-05T17:48:15.084Z</time></trkpt><trkpt lat="37.5705141" lon="15.0531907"><ele>405.0</ele><time>2026-05-05T17:48:17.979Z</time></trkpt><trkpt lat="37.5705423" lon="15.0532877"><ele>404.99999999999994</ele><time>2026-05-05T17:48:20.977Z</time></trkpt><trkpt lat="37.5705823" lon="15.0533649"><ele>405.0</ele><time>2026-05-05T17:48:23.993Z</time></trkpt><trkpt lat="37.5706179" lon="15.0534355"><ele>404.71428571428567</ele><time>2026-05-05T17:48:27.009Z</time></trkpt><trkpt lat="37.5706618" lon="15.0535242"><ele>404.42857142857144</ele><time>2026-05-05T17:48:31.064Z</time></trkpt><trkpt lat="37.5707011" lon="15.0536019"><ele>404.1428571428571</ele><time>2026-05-05T17:48:35.016Z</time></trkpt><trkpt lat="37.5707434" lon="15.0536864"><ele>403.85714285714283</ele><time>2026-05-05T17:48:39.02Z</time></trkpt><trkpt lat="37.5707808" lon="15.0537595"><ele>403.57142857142856</ele><time>2026-05-05T17:48:41.979Z</time></trkpt><trkpt lat="37.570818" lon="15.0538286"><ele>403.2857142857143</ele><time>2026-05-05T17:48:45.001Z</time></trkpt><trkpt lat="37.5708564" lon="15.0539118"><ele>403.0</ele><time>2026-05-05T17:48:48.94Z</time></trkpt><trkpt lat="37.5708936" lon="15.0539779"><ele>403.0</ele><time>2026-05-05T17:48:52.072Z</time></trkpt><trkpt lat="37.5709497" lon="15.0540318"><ele>403.0</ele><time>2026-05-05T17:48:55.98Z</time></trkpt><trkpt lat="37.5710128" lon="15.0540358"><ele>403.0</ele><time>2026-05-05T17:49:01.017Z</time></trkpt><trkpt lat="37.5710884" lon="15.0539689"><ele>403.0</ele><time>2026-05-05T17:49:04.032Z</time></trkpt><trkpt lat="37.5711435" lon="15.0539266"><ele>403.0</ele><time>2026-05-05T17:49:06.043Z</time></trkpt><trkpt lat="37.5711998" lon="15.053865"><ele>403.0</ele><time>2026-05-05T17:49:07.985Z</time></trkpt><trkpt lat="37.5712651" lon="15.0537995"><ele>403.0</ele><time>2026-05-05T17:49:11.001Z</time></trkpt><trkpt lat="37.5713183" lon="15.053755"><ele>403.5714285714286</ele><time>2026-05-05T17:49:14.017Z</time></trkpt><trkpt lat="37.5713706" lon="15.0537089"><ele>404.1428571428571</ele><time>2026-05-05T17:49:16.963Z</time></trkpt><trkpt lat="37.571426" lon="15.0536419"><ele>404.7142857142857</ele><time>2026-05-05T17:49:20.985Z</time></trkpt><trkpt lat="37.5714784" lon="15.0535901"><ele>405.28571428571433</ele><time>2026-05-05T17:49:24.043Z</time></trkpt><trkpt lat="37.5715286" lon="15.0535282"><ele>405.8571428571429</ele><time>2026-05-05T17:49:28.963Z</time></trkpt><trkpt lat="37.5714938" lon="15.0536118"><ele>406.42857142857144</ele><time>2026-05-05T17:49:33.984Z</time></trkpt><trkpt lat="37.5715454" lon="15.0535504"><ele>407.0</ele><time>2026-05-05T17:49:44.595Z</time></trkpt><trkpt lat="37.5715004" lon="15.0534668"><ele>407.0</ele><time>2026-05-05T17:49:45.675Z</time></trkpt><trkpt lat="37.5714421" lon="15.053376"><ele>407.0</ele><time>2026-05-05T17:49:47.899Z</time></trkpt><trkpt lat="37.5713588" lon="15.0532304"><ele>407.0</ele><time>2026-05-05T17:49:51.041Z</time></trkpt><trkpt lat="37.5712826" lon="15.0531211"><ele>407.0</ele><time>2026-05-05T17:49:53.076Z</time></trkpt><trkpt lat="37.5712581" lon="15.0530406"><ele>407.0</ele><time>2026-05-05T17:49:54.98Z</time></trkpt><trkpt lat="37.5712086" lon="15.0529717"><ele>406.66666666666663</ele><time>2026-05-05T17:49:57.073Z</time></trkpt><trkpt lat="37.5711614" lon="15.0529036"><ele>406.3333333333333</ele><time>2026-05-05T17:49:59.045Z</time></trkpt><trkpt lat="37.5710895" lon="15.0528424"><ele>406.0</ele><time>2026-05-05T17:50:02.003Z</time></trkpt><trkpt lat="37.5710089" lon="15.0528134"><ele>405.66666666666663</ele><time>2026-05-05T17:50:06.059Z</time></trkpt><trkpt lat="37.5709407" lon="15.0528173"><ele>405.3333333333333</ele><time>2026-05-05T17:50:09.003Z</time></trkpt><trkpt lat="37.5708655" lon="15.0528448"><ele>405.0</ele><time>2026-05-05T17:50:11.939Z</time></trkpt><trkpt lat="37.5707822" lon="15.0528812"><ele>404.99999999999994</ele><time>2026-05-05T17:50:15.065Z</time></trkpt><trkpt lat="37.5707097" lon="15.0529326"><ele>405.0</ele><time>2026-05-05T17:50:18.044Z</time></trkpt><trkpt lat="37.5706442" lon="15.0529885"><ele>405.0</ele><time>2026-05-05T17:50:20.994Z</time></trkpt><trkpt lat="37.5705831" lon="15.0530362"><ele>405.0</ele><time>2026-05-05T17:50:24.01Z</time></trkpt><trkpt lat="37.5705316" lon="15.0530858"><ele>405.0</ele><time>2026-05-05T17:50:27.005Z</time></trkpt><trkpt lat="37.5705077" lon="15.0531644"><ele>404.99999999999994</ele><time>2026-05-05T17:50:30.041Z</time></trkpt><trkpt lat="37.5705142" lon="15.0532568"><ele>405.0</ele><time>2026-05-05T17:50:33.058Z</time></trkpt><trkpt lat="37.5705692" lon="15.0533265"><ele>404.71428571428567</ele><time>2026-05-05T17:50:36.059Z</time></trkpt><trkpt lat="37.5706158" lon="15.0533841"><ele>404.42857142857144</ele><time>2026-05-05T17:50:40.021Z</time></trkpt><trkpt lat="37.5706494" lon="15.053474"><ele>404.1428571428571</ele><time>2026-05-05T17:50:43.973Z</time></trkpt><trkpt lat="37.5706915" lon="15.0535493"><ele>403.85714285714283</ele><time>2026-05-05T17:50:48.029Z</time></trkpt><trkpt lat="37.5707331" lon="15.0536333"><ele>403.57142857142856</ele><time>2026-05-05T17:50:52.884Z</time></trkpt><trkpt lat="37.5707685" lon="15.0537055"><ele>403.2857142857143</ele><time>2026-05-05T17:50:57.078Z</time></trkpt><trkpt lat="37.5708075" lon="15.0537766"><ele>403.0</ele><time>2026-05-05T17:51:02.003Z</time></trkpt><trkpt lat="37.5708474" lon="15.0538632"><ele>403.00000000000006</ele><time>2026-05-05T17:51:05.883Z</time></trkpt><trkpt lat="37.570883" lon="15.0539299"><ele>403.0</ele><time>2026-05-05T17:51:09.038Z</time></trkpt><trkpt lat="37.5709239" lon="15.0540231"><ele>403.0</ele><time>2026-05-05T17:51:13.093Z</time></trkpt><trkpt lat="37.5709867" lon="15.0540327"><ele>403.0</ele><time>2026-05-05T17:51:20.04Z</time></trkpt><trkpt lat="37.5710673" lon="15.0539337"><ele>403.00000000000006</ele><time>2026-05-05T17:51:23.019Z</time></trkpt><trkpt lat="37.5711359" lon="15.0538783"><ele>403.0</ele><time>2026-05-05T17:51:25.053Z</time></trkpt><trkpt lat="37.571252" lon="15.0538134"><ele>403.5714285714286</ele><time>2026-05-05T17:51:27.968Z</time></trkpt><trkpt lat="37.5713107" lon="15.0537625"><ele>404.1428571428571</ele><time>2026-05-05T17:51:30.059Z</time></trkpt><trkpt lat="37.5713772" lon="15.0537017"><ele>404.7142857142857</ele><time>2026-05-05T17:51:32.967Z</time></trkpt><trkpt lat="37.5714415" lon="15.0536476"><ele>405.28571428571433</ele><time>2026-05-05T17:51:35.973Z</time></trkpt><trkpt lat="37.5714618" lon="15.0535614"><ele>405.8571428571429</ele><time>2026-05-05T17:51:42.005Z</time></trkpt><trkpt lat="37.571423" lon="15.053496"><ele>406.42857142857144</ele><time>2026-05-05T17:51:48.973Z</time></trkpt><trkpt lat="37.5713877" lon="15.0534162"><ele>407.0</ele><time>2026-05-05T17:51:51.99Z</time></trkpt><trkpt lat="37.5713424" lon="15.0533567"><ele>407.28571428571433</ele><time>2026-05-05T17:51:54.069Z</time></trkpt><trkpt lat="37.5713133" lon="15.0532724"><ele>407.57142857142856</ele><time>2026-05-05T17:51:56.981Z</time></trkpt><trkpt lat="37.571284" lon="15.0532017"><ele>407.8571428571429</ele><time>2026-05-05T17:51:59.061Z</time></trkpt><trkpt lat="37.5712315" lon="15.0531307"><ele>408.14285714285717</ele><time>2026-05-05T17:52:02.076Z</time></trkpt><trkpt lat="37.5712016" lon="15.0530575"><ele>408.42857142857144</ele><time>2026-05-05T17:52:04.989Z</time></trkpt><trkpt lat="37.5711596" lon="15.052984"><ele>408.7142857142857</ele><time>2026-05-05T17:52:09.045Z</time></trkpt><trkpt lat="37.5711083" lon="15.0529006"><ele>409.0</ele><time>2026-05-05T17:52:13.043Z</time></trkpt><trkpt lat="37.5710716" lon="15.0528204"><ele>408.33333333333337</ele><time>2026-05-05T17:52:17.06Z</time></trkpt><trkpt lat="37.5710007" lon="15.0527698"><ele>407.6666666666667</ele><time>2026-05-05T17:52:22.045Z</time></trkpt><trkpt lat="37.5709325" lon="15.0527758"><ele>407.0</ele><time>2026-05-05T17:52:25.062Z</time></trkpt><trkpt lat="37.5708615" lon="15.0528096"><ele>406.33333333333337</ele><time>2026-05-05T17:52:28.019Z</time></trkpt><trkpt lat="37.5708066" lon="15.0528698"><ele>405.6666666666667</ele><time>2026-05-05T17:52:30.989Z</time></trkpt><trkpt lat="37.5707545" lon="15.0529476"><ele>405.0</ele><time>2026-05-05T17:52:34.005Z</time></trkpt><trkpt lat="37.5706935" lon="15.0530111"><ele>404.99999999999994</ele><time>2026-05-05T17:52:37.021Z</time></trkpt><trkpt lat="37.5706188" lon="15.0530578"><ele>405.0</ele><time>2026-05-05T17:52:40.004Z</time></trkpt><trkpt lat="37.57056" lon="15.0530916"><ele>405.0</ele><time>2026-05-05T17:52:42.924Z</time></trkpt><trkpt lat="37.5704959" lon="15.0531331"><ele>405.0</ele><time>2026-05-05T17:52:47.02Z</time></trkpt><trkpt lat="37.570512" lon="15.0532342"><ele>405.0</ele><time>2026-05-05T17:52:51.044Z</time></trkpt><trkpt lat="37.5705548" lon="15.0533057"><ele>404.99999999999994</ele><time>2026-05-05T17:52:53.978Z</time></trkpt><trkpt lat="37.5705899" lon="15.05338"><ele>405.0</ele><time>2026-05-05T17:52:56.989Z</time></trkpt><trkpt lat="37.5706304" lon="15.0534543"><ele>404.71428571428567</ele><time>2026-05-05T17:53:00.006Z</time></trkpt><trkpt lat="37.5706689" lon="15.0535291"><ele>404.42857142857144</ele><time>2026-05-05T17:53:03.022Z</time></trkpt><trkpt lat="37.5707031" lon="15.0536068"><ele>404.1428571428571</ele><time>2026-05-05T17:53:06.037Z</time></trkpt><trkpt lat="37.5707427" lon="15.0536866"><ele>403.85714285714283</ele><time>2026-05-05T17:53:09.003Z</time></trkpt><trkpt lat="37.5707981" lon="15.0537646"><ele>403.57142857142856</ele><time>2026-05-05T17:53:13.003Z</time></trkpt><trkpt lat="37.5708311" lon="15.0538493"><ele>403.2857142857143</ele><time>2026-05-05T17:53:17.043Z</time></trkpt><trkpt lat="37.5708704" lon="15.0539287"><ele>403.0</ele><time>2026-05-05T17:53:21.019Z</time></trkpt><trkpt lat="37.5709205" lon="15.0540115"><ele>403.0</ele><time>2026-05-05T17:53:25.059Z</time></trkpt><trkpt lat="37.5709924" lon="15.0540344"><ele>403.0</ele><time>2026-05-05T17:53:30.061Z</time></trkpt><trkpt lat="37.5710496" lon="15.0539878"><ele>403.0</ele><time>2026-05-05T17:53:33.98Z</time></trkpt><trkpt lat="37.5711104" lon="15.0539042"><ele>403.0</ele><time>2026-05-05T17:53:36.923Z</time></trkpt><trkpt lat="37.5711644" lon="15.053853"><ele>403.0</ele><time>2026-05-05T17:53:39.099Z</time></trkpt><trkpt lat="37.571231" lon="15.0537966"><ele>403.0</ele><time>2026-05-05T17:53:42.06Z</time></trkpt><trkpt lat="37.5712842" lon="15.053751"><ele>403.0</ele><time>2026-05-05T17:53:45.083Z</time></trkpt><trkpt lat="37.571351" lon="15.0536937"><ele>403.5714285714286</ele><time>2026-05-05T17:53:48.419Z</time></trkpt><trkpt lat="37.5714124" lon="15.0536394"><ele>404.1428571428571</ele><time>2026-05-05T17:53:51.724Z</time></trkpt><trkpt lat="37.5714556" lon="15.0535687"><ele>404.7142857142857</ele><time>2026-05-05T17:53:55.043Z</time></trkpt><trkpt lat="37.5714735" lon="15.053482"><ele>405.28571428571433</ele><time>2026-05-05T17:54:00.013Z</time></trkpt><trkpt lat="37.5714613" lon="15.0535677"><ele>405.8571428571429</ele><time>2026-05-05T17:54:02.924Z</time></trkpt><trkpt lat="37.5714187" lon="15.0534935"><ele>406.42857142857144</ele><time>2026-05-05T17:54:05.004Z</time></trkpt><trkpt lat="37.5713799" lon="15.0534036"><ele>407.0</ele><time>2026-05-05T17:54:08.02Z</time></trkpt><trkpt lat="37.5713447" lon="15.0533336"><ele>407.3333333333333</ele><time>2026-05-05T17:54:10.98Z</time></trkpt><trkpt lat="37.5713023" lon="15.0532479"><ele>407.66666666666663</ele><time>2026-05-05T17:54:13.924Z</time></trkpt><trkpt lat="37.5712481" lon="15.0531623"><ele>408.0</ele><time>2026-05-05T17:54:16.963Z</time></trkpt><trkpt lat="37.5712022" lon="15.0530847"><ele>408.33333333333337</ele><time>2026-05-05T17:54:19.963Z</time></trkpt><trkpt lat="37.5711546" lon="15.0530192"><ele>408.6666666666667</ele><time>2026-05-05T17:54:22.965Z</time></trkpt><trkpt lat="37.5711102" lon="15.0529338"><ele>409.0</ele><time>2026-05-05T17:54:27.059Z</time></trkpt><trkpt lat="37.571074" lon="15.0528498"><ele>408.33333333333337</ele><time>2026-05-05T17:54:31.004Z</time></trkpt><trkpt lat="37.5710269" lon="15.0527731"><ele>407.6666666666667</ele><time>2026-05-05T17:54:35.06Z</time></trkpt><trkpt lat="37.5709605" lon="15.0527438"><ele>407.0</ele><time>2026-05-05T17:54:38.922Z</time></trkpt><trkpt lat="37.5708904" lon="15.0527889"><ele>406.33333333333337</ele><time>2026-05-05T17:54:43.019Z</time></trkpt><trkpt lat="37.5708315" lon="15.0528632"><ele>405.6666666666667</ele><time>2026-05-05T17:54:47.02Z</time></trkpt><trkpt lat="37.5707824" lon="15.0529131"><ele>405.0</ele><time>2026-05-05T17:54:50.082Z</time></trkpt><trkpt lat="37.5707127" lon="15.0529608"><ele>404.99999999999994</ele><time>2026-05-05T17:54:53.989Z</time></trkpt><trkpt lat="37.5706497" lon="15.0530071"><ele>405.0</ele><time>2026-05-05T17:54:57.965Z</time></trkpt><trkpt lat="37.5705935" lon="15.0530469"><ele>405.0</ele><time>2026-05-05T17:55:02.019Z</time></trkpt><trkpt lat="37.5705408" lon="15.0531052"><ele>405.0</ele><time>2026-05-05T17:55:06.059Z</time></trkpt><trkpt lat="37.5705379" lon="15.0531958"><ele>405.0</ele><time>2026-05-05T17:55:10.005Z</time></trkpt><trkpt lat="37.5705808" lon="15.0532784"><ele>404.99999999999994</ele><time>2026-05-05T17:55:14.061Z</time></trkpt><trkpt lat="37.5706198" lon="15.0533653"><ele>405.0</ele><time>2026-05-05T17:55:18.035Z</time></trkpt><trkpt lat="37.5706547" lon="15.0534391"><ele>404.6666666666667</ele><time>2026-05-05T17:55:21.06Z</time></trkpt><trkpt lat="37.5706929" lon="15.0535311"><ele>404.33333333333337</ele><time>2026-05-05T17:55:25.086Z</time></trkpt><trkpt lat="37.5707385" lon="15.0536198"><ele>404.0</ele><time>2026-05-05T17:55:29.037Z</time></trkpt><trkpt lat="37.5707754" lon="15.053697"><ele>403.6666666666667</ele><time>2026-05-05T17:55:32.98Z</time></trkpt><trkpt lat="37.5708169" lon="15.0537794"><ele>403.33333333333337</ele><time>2026-05-05T17:55:37.059Z</time></trkpt><trkpt lat="37.5708594" lon="15.053864"><ele>403.0</ele><time>2026-05-05T17:55:41.899Z</time></trkpt><trkpt lat="37.5708994" lon="15.0539304"><ele>403.0</ele><time>2026-05-05T17:55:45.05Z</time></trkpt><trkpt lat="37.5709574" lon="15.0539904"><ele>403.0</ele><time>2026-05-05T17:55:49.001Z</time></trkpt><trkpt lat="37.5710266" lon="15.0540308"><ele>403.0</ele><time>2026-05-05T17:55:53.035Z</time></trkpt><trkpt lat="37.571097" lon="15.0540047"><ele>403.0</ele><time>2026-05-05T17:55:57.009Z</time></trkpt><trkpt lat="37.5711403" lon="15.0539265"><ele>403.0</ele><time>2026-05-05T17:55:59.035Z</time></trkpt><trkpt lat="37.5711968" lon="15.0538794"><ele>403.0</ele><time>2026-05-05T17:56:02.043Z</time></trkpt><trkpt lat="37.5712545" lon="15.0538217"><ele>403.0</ele><time>2026-05-05T17:56:05.016Z</time></trkpt><trkpt lat="37.5713106" lon="15.0537692"><ele>403.5714285714286</ele><time>2026-05-05T17:56:08.032Z</time></trkpt><trkpt lat="37.5713716" lon="15.0537061"><ele>404.1428571428571</ele><time>2026-05-05T17:56:12.089Z</time></trkpt><trkpt lat="37.5714299" lon="15.0536583"><ele>404.7142857142857</ele><time>2026-05-05T17:56:15.963Z</time></trkpt><trkpt lat="37.5714762" lon="15.0535899"><ele>405.28571428571433</ele><time>2026-05-05T17:56:19.993Z</time></trkpt><trkpt lat="37.5714489" lon="15.0535099"><ele>405.8571428571429</ele><time>2026-05-05T17:56:26.025Z</time></trkpt><trkpt lat="37.571405" lon="15.0534413"><ele>406.42857142857144</ele><time>2026-05-05T17:56:28.1Z</time></trkpt><trkpt lat="37.5713845" lon="15.0533644"><ele>407.0</ele><time>2026-05-05T17:56:30.043Z</time></trkpt><trkpt lat="37.5713559" lon="15.05329"><ele>407.3333333333333</ele><time>2026-05-05T17:56:32.058Z</time></trkpt><trkpt lat="37.5713119" lon="15.0531966"><ele>407.66666666666663</ele><time>2026-05-05T17:56:34.969Z</time></trkpt><trkpt lat="37.5712647" lon="15.0531104"><ele>408.0</ele><time>2026-05-05T17:56:39.075Z</time></trkpt><trkpt lat="37.5712143" lon="15.0530275"><ele>408.33333333333337</ele><time>2026-05-05T17:56:43.623Z</time></trkpt><trkpt lat="37.5711701" lon="15.0529522"><ele>408.6666666666667</ele><time>2026-05-05T17:56:48.099Z</time></trkpt><trkpt lat="37.571146" lon="15.0528785"><ele>409.0</ele><time>2026-05-05T17:56:52.025Z</time></trkpt><trkpt lat="37.5711012" lon="15.0528215"><ele>408.4285714285714</ele><time>2026-05-05T17:56:55.977Z</time></trkpt><trkpt lat="37.5710433" lon="15.0527629"><ele>407.8571428571429</ele><time>2026-05-05T17:57:00.033Z</time></trkpt><trkpt lat="37.5709778" lon="15.0527623"><ele>407.2857142857143</ele><time>2026-05-05T17:57:03.985Z</time></trkpt><trkpt lat="37.5709128" lon="15.0527899"><ele>406.71428571428567</ele><time>2026-05-05T17:57:07.001Z</time></trkpt><trkpt lat="37.5708511" lon="15.0528336"><ele>406.1428571428571</ele><time>2026-05-05T17:57:09.963Z</time></trkpt><trkpt lat="37.570781" lon="15.052889"><ele>405.57142857142856</ele><time>2026-05-05T17:57:14.059Z</time></trkpt><trkpt lat="37.5707105" lon="15.0529381"><ele>405.0</ele><time>2026-05-05T17:57:18.024Z</time></trkpt><trkpt lat="37.5706556" lon="15.0529794"><ele>404.99999999999994</ele><time>2026-05-05T17:57:21.041Z</time></trkpt><trkpt lat="37.5706002" lon="15.0530223"><ele>405.0</ele><time>2026-05-05T17:57:24.056Z</time></trkpt><trkpt lat="37.5705507" lon="15.0530779"><ele>405.0</ele><time>2026-05-05T17:57:27.059Z</time></trkpt><trkpt lat="37.5705337" lon="15.05318"><ele>405.0</ele><time>2026-05-05T17:57:31.024Z</time></trkpt><trkpt lat="37.5705767" lon="15.0532602"><ele>405.0</ele><time>2026-05-05T17:57:34.044Z</time></trkpt><trkpt lat="37.570617" lon="15.0533336"><ele>404.99999999999994</ele><time>2026-05-05T17:57:37.043Z</time></trkpt><trkpt lat="37.5706339" lon="15.0534115"><ele>405.0</ele><time>2026-05-05T17:57:39.979Z</time></trkpt><trkpt lat="37.5706712" lon="15.0535069"><ele>404.71428571428567</ele><time>2026-05-05T17:57:44.024Z</time></trkpt><trkpt lat="37.5707061" lon="15.0535792"><ele>404.42857142857144</ele><time>2026-05-05T17:57:47.062Z</time></trkpt><trkpt lat="37.5707481" lon="15.0536709"><ele>404.1428571428571</ele><time>2026-05-05T17:57:51.059Z</time></trkpt><trkpt lat="37.570781" lon="15.0537394"><ele>403.85714285714283</ele><time>2026-05-05T17:57:53.979Z</time></trkpt><trkpt lat="37.5708208" lon="15.0538161"><ele>403.57142857142856</ele><time>2026-05-05T17:57:58.064Z</time></trkpt><trkpt lat="37.5708512" lon="15.0538871"><ele>403.2857142857143</ele><time>2026-05-05T17:58:01.043Z</time></trkpt><trkpt lat="37.570889" lon="15.0539514"><ele>403.0</ele><time>2026-05-05T17:58:03.964Z</time></trkpt><trkpt lat="37.5709288" lon="15.0540162"><ele>403.00000000000006</ele><time>2026-05-05T17:58:07.008Z</time></trkpt><trkpt lat="37.5709801" lon="15.0540639"><ele>403.0</ele><time>2026-05-05T17:58:12Z</time></trkpt><trkpt lat="37.5710391" lon="15.0540192"><ele>403.0</ele><time>2026-05-05T17:58:14.081Z</time></trkpt><trkpt lat="37.5711144" lon="15.0539513"><ele>403.0</ele><time>2026-05-05T17:58:16.993Z</time></trkpt><trkpt lat="37.5711868" lon="15.0538827"><ele>403.00000000000006</ele><time>2026-05-05T17:58:20.008Z</time></trkpt><trkpt lat="37.5712456" lon="15.0538181"><ele>403.0</ele><time>2026-05-05T17:58:23.024Z</time></trkpt><trkpt lat="37.5712998" lon="15.0537661"><ele>403.5714285714286</ele><time>2026-05-05T17:58:26.042Z</time></trkpt><trkpt lat="37.5713534" lon="15.0537182"><ele>404.1428571428571</ele><time>2026-05-05T17:58:29.057Z</time></trkpt><trkpt lat="37.5714082" lon="15.0536736"><ele>404.7142857142857</ele><time>2026-05-05T17:58:31.97Z</time></trkpt><trkpt lat="37.5714668" lon="15.0536049"><ele>405.28571428571433</ele><time>2026-05-05T17:58:37.064Z</time></trkpt><trkpt lat="37.5714996" lon="15.053529"><ele>405.8571428571429</ele><time>2026-05-05T17:58:44.033Z</time></trkpt><trkpt lat="37.5714864" lon="15.0536213"><ele>406.42857142857144</ele><time>2026-05-05T17:58:50.035Z</time></trkpt><trkpt lat="37.5715531" lon="15.0535893"><ele>407.0</ele><time>2026-05-05T17:58:56.037Z</time></trkpt><trkpt lat="37.5715229" lon="15.0534998"><ele>407.0</ele><time>2026-05-05T17:58:57.099Z</time></trkpt><trkpt lat="37.5714311" lon="15.0533861"><ele>407.0</ele><time>2026-05-05T17:59:00.049Z</time></trkpt><trkpt lat="37.5713912" lon="15.0533106"><ele>407.0</ele><time>2026-05-05T17:59:01.979Z</time></trkpt><trkpt lat="37.5713324" lon="15.053231"><ele>407.0</ele><time>2026-05-05T17:59:03.059Z</time></trkpt><trkpt lat="37.5712733" lon="15.0531255"><ele>407.0</ele><time>2026-05-05T17:59:04.963Z</time></trkpt><trkpt lat="37.5712234" lon="15.0530465"><ele>407.28571428571433</ele><time>2026-05-05T17:59:07.017Z</time></trkpt><trkpt lat="37.5711938" lon="15.0529764"><ele>407.57142857142856</ele><time>2026-05-05T17:59:09.019Z</time></trkpt><trkpt lat="37.571161" lon="15.0529072"><ele>407.8571428571429</ele><time>2026-05-05T17:59:11.98Z</time></trkpt><trkpt lat="37.5711118" lon="15.0528508"><ele>408.14285714285717</ele><time>2026-05-05T17:59:15.025Z</time></trkpt><trkpt lat="37.5710482" lon="15.0527944"><ele>408.42857142857144</ele><time>2026-05-05T17:59:17.94Z</time></trkpt><trkpt lat="37.5709742" lon="15.0527763"><ele>408.7142857142857</ele><time>2026-05-05T17:59:20.966Z</time></trkpt><trkpt lat="37.5708965" lon="15.0527865"><ele>409.0</ele><time>2026-05-05T17:59:24.995Z</time></trkpt><trkpt lat="37.5708254" lon="15.0528434"><ele>408.33333333333337</ele><time>2026-05-05T17:59:29.06Z</time></trkpt><trkpt lat="37.5707591" lon="15.0528793"><ele>407.6666666666667</ele><time>2026-05-05T17:59:32.021Z</time></trkpt><trkpt lat="37.570702" lon="15.0529247"><ele>407.0</ele><time>2026-05-05T17:59:34.955Z</time></trkpt><trkpt lat="37.5706339" lon="15.0529823"><ele>406.33333333333337</ele><time>2026-05-05T17:59:38.275Z</time></trkpt><trkpt lat="37.5705703" lon="15.0530369"><ele>405.6666666666667</ele><time>2026-05-05T17:59:41.499Z</time></trkpt><trkpt lat="37.5705259" lon="15.0531142"><ele>405.0</ele><time>2026-05-05T17:59:44.843Z</time></trkpt><trkpt lat="37.570552" lon="15.0532067"><ele>404.99999999999994</ele><time>2026-05-05T17:59:48.098Z</time></trkpt><trkpt lat="37.5705914" lon="15.0532769"><ele>405.0</ele><time>2026-05-05T17:59:51.009Z</time></trkpt><trkpt lat="37.5706222" lon="15.0533564"><ele>405.0</ele><time>2026-05-05T17:59:54.058Z</time></trkpt><trkpt lat="37.570648" lon="15.0534295"><ele>405.0</ele><time>2026-05-05T17:59:57.019Z</time></trkpt><trkpt lat="37.5706793" lon="15.0535222"><ele>405.0</ele><time>2026-05-05T18:00:01.019Z</time></trkpt><trkpt lat="37.5707091" lon="15.0535969"><ele>404.99999999999994</ele><time>2026-05-05T18:00:04.009Z</time></trkpt><trkpt lat="37.5707475" lon="15.0536742"><ele>405.0</ele><time>2026-05-05T18:00:07.026Z</time></trkpt><trkpt lat="37.5707856" lon="15.0537518"><ele>404.71428571428567</ele><time>2026-05-05T18:00:10.076Z</time></trkpt><trkpt lat="37.5708278" lon="15.053829"><ele>404.42857142857144</ele><time>2026-05-05T18:00:13.993Z</time></trkpt><trkpt lat="37.570861" lon="15.0539126"><ele>404.1428571428571</ele><time>2026-05-05T18:00:18.049Z</time></trkpt><trkpt lat="37.5709043" lon="15.0539876"><ele>403.85714285714283</ele><time>2026-05-05T18:00:22.001Z</time></trkpt><trkpt lat="37.5709744" lon="15.0540322"><ele>403.57142857142856</ele><time>2026-05-05T18:00:26.057Z</time></trkpt><trkpt lat="37.5710436" lon="15.0540405"><ele>403.2857142857143</ele><time>2026-05-05T18:00:30.009Z</time></trkpt><trkpt lat="37.5711082" lon="15.0539912"><ele>403.0</ele><time>2026-05-05T18:00:34.066Z</time></trkpt><trkpt lat="37.5711589" lon="15.0539319"><ele>403.5714285714286</ele><time>2026-05-05T18:00:37.081Z</time></trkpt><trkpt lat="37.5712261" lon="15.0538701"><ele>404.1428571428571</ele><time>2026-05-05T18:00:39.993Z</time></trkpt><trkpt lat="37.5712899" lon="15.0538114"><ele>404.7142857142857</ele><time>2026-05-05T18:00:43.008Z</time></trkpt><trkpt lat="37.57135" lon="15.0537527"><ele>405.28571428571433</ele><time>2026-05-05T18:00:46.024Z</time></trkpt><trkpt lat="37.5713991" lon="15.0537013"><ele>405.8571428571429</ele><time>2026-05-05T18:00:49.059Z</time></trkpt><trkpt lat="37.5714625" lon="15.0536459"><ele>406.42857142857144</ele><time>2026-05-05T18:00:52.994Z</time></trkpt><trkpt lat="37.5715006" lon="15.0535822"><ele>407.0</ele><time>2026-05-05T18:00:56.083Z</time></trkpt><trkpt lat="37.5714559" lon="15.0534996"><ele>406.99999999999994</ele><time>2026-05-05T18:01:06.043Z</time></trkpt><trkpt lat="37.571405" lon="15.0534169"><ele>407.0</ele><time>2026-05-05T18:01:09.009Z</time></trkpt><trkpt lat="37.57135" lon="15.0533289"><ele>407.0</ele><time>2026-05-05T18:01:12.025Z</time></trkpt><trkpt lat="37.5712992" lon="15.0532411"><ele>407.0</ele><time>2026-05-05T18:01:15.04Z</time></trkpt><trkpt lat="37.5712564" lon="15.0531455"><ele>406.99999999999994</ele><time>2026-05-05T18:01:18.044Z</time></trkpt><trkpt lat="37.5712222" lon="15.0530626"><ele>407.0</ele><time>2026-05-05T18:01:21.043Z</time></trkpt><trkpt lat="37.5711963" lon="15.0529856"><ele>406.7142857142857</ele><time>2026-05-05T18:01:23.979Z</time></trkpt><trkpt lat="37.5711492" lon="15.0529182"><ele>406.42857142857144</ele><time>2026-05-05T18:01:28.019Z</time></trkpt><trkpt lat="37.5711057" lon="15.0528363"><ele>406.1428571428571</ele><time>2026-05-05T18:01:31.994Z</time></trkpt><trkpt lat="37.5710546" lon="15.0527562"><ele>405.8571428571429</ele><time>2026-05-05T18:01:36.05Z</time></trkpt><trkpt lat="37.5709931" lon="15.0527367"><ele>405.57142857142856</ele><time>2026-05-05T18:01:40.002Z</time></trkpt><trkpt lat="37.5709291" lon="15.0527611"><ele>405.2857142857143</ele><time>2026-05-05T18:01:43.017Z</time></trkpt><trkpt lat="37.5708783" lon="15.0528105"><ele>405.0</ele><time>2026-05-05T18:01:46.059Z</time></trkpt><trkpt lat="37.5708073" lon="15.0528637"><ele>404.99999999999994</ele><time>2026-05-05T18:01:49.996Z</time></trkpt><trkpt lat="37.5707435" lon="15.0529093"><ele>405.0</ele><time>2026-05-05T18:01:53.299Z</time></trkpt><trkpt lat="37.5706831" lon="15.0529567"><ele>405.0</ele><time>2026-05-05T18:01:56.499Z</time></trkpt><trkpt lat="37.5706167" lon="15.053009"><ele>405.0</ele><time>2026-05-05T18:02:00.074Z</time></trkpt><trkpt lat="37.5705616" lon="15.0530535"><ele>405.0</ele><time>2026-05-05T18:02:03.003Z</time></trkpt><trkpt lat="37.5705118" lon="15.0531119"><ele>404.99999999999994</ele><time>2026-05-05T18:02:06Z</time></trkpt><trkpt lat="37.5705068" lon="15.0531992"><ele>405.0</ele><time>2026-05-05T18:02:10.057Z</time></trkpt><trkpt lat="37.5705397" lon="15.0532715"><ele>404.71428571428567</ele><time>2026-05-05T18:02:12.969Z</time></trkpt><trkpt lat="37.5705787" lon="15.0533414"><ele>404.42857142857144</ele><time>2026-05-05T18:02:16.006Z</time></trkpt><trkpt lat="37.570611" lon="15.0534181"><ele>404.1428571428571</ele><time>2026-05-05T18:02:19.001Z</time></trkpt><trkpt lat="37.5706461" lon="15.0534996"><ele>403.85714285714283</ele><time>2026-05-05T18:02:22.018Z</time></trkpt><trkpt lat="37.5706792" lon="15.0535772"><ele>403.57142857142856</ele><time>2026-05-05T18:02:25.033Z</time></trkpt><trkpt lat="37.570721" lon="15.0536576"><ele>403.2857142857143</ele><time>2026-05-05T18:02:28.985Z</time></trkpt><trkpt lat="37.5707641" lon="15.0537457"><ele>403.0</ele><time>2026-05-05T18:02:33.04Z</time></trkpt><trkpt lat="37.5708052" lon="15.0538264"><ele>403.0</ele><time>2026-05-05T18:02:37.083Z</time></trkpt><trkpt lat="37.5708423" lon="15.0539074"><ele>403.0</ele><time>2026-05-05T18:02:40.996Z</time></trkpt><trkpt lat="37.5708818" lon="15.0539781"><ele>403.0</ele><time>2026-05-05T18:02:44.065Z</time></trkpt><trkpt lat="37.5709254" lon="15.054037"><ele>403.0</ele><time>2026-05-05T18:02:47.076Z</time></trkpt><trkpt lat="37.5709984" lon="15.0540359"><ele>403.0</ele><time>2026-05-05T18:02:52.195Z</time></trkpt><trkpt lat="37.5710633" lon="15.0539825"><ele>403.0</ele><time>2026-05-05T18:02:54.739Z</time></trkpt><trkpt lat="37.5711178" lon="15.053935"><ele>403.0</ele><time>2026-05-05T18:02:56.939Z</time></trkpt><trkpt lat="37.5711831" lon="15.0538875"><ele>403.5714285714286</ele><time>2026-05-05T18:03:00.081Z</time></trkpt><trkpt lat="37.5712456" lon="15.0538444"><ele>404.1428571428571</ele><time>2026-05-05T18:03:02.993Z</time></trkpt><trkpt lat="37.5713001" lon="15.0537989"><ele>404.7142857142857</ele><time>2026-05-05T18:03:05.995Z</time></trkpt><trkpt lat="37.5713543" lon="15.0537529"><ele>405.28571428571433</ele><time>2026-05-05T18:03:08.956Z</time></trkpt><trkpt lat="37.5714075" lon="15.0537033"><ele>405.8571428571429</ele><time>2026-05-05T18:03:13.075Z</time></trkpt><trkpt lat="37.5714658" lon="15.0536401"><ele>406.42857142857144</ele><time>2026-05-05T18:03:17.955Z</time></trkpt><trkpt lat="37.5715176" lon="15.0535647"><ele>407.0</ele><time>2026-05-05T18:03:23.065Z</time></trkpt><trkpt lat="37.5714737" lon="15.0534744"><ele>407.00000000000006</ele><time>2026-05-05T18:03:29.076Z</time></trkpt><trkpt lat="37.5714197" lon="15.0534264"><ele>407.0</ele><time>2026-05-05T18:03:30.963Z</time></trkpt><trkpt lat="37.5713592" lon="15.0533599"><ele>407.0</ele><time>2026-05-05T18:03:33.985Z</time></trkpt><trkpt lat="37.5713219" lon="15.0532651"><ele>407.0</ele><time>2026-05-05T18:03:37.001Z</time></trkpt><trkpt lat="37.571281" lon="15.0531867"><ele>407.0</ele><time>2026-05-05T18:03:40.083Z</time></trkpt><trkpt lat="37.5712351" lon="15.0531308"><ele>407.00000000000006</ele><time>2026-05-05T18:03:43.033Z</time></trkpt><trkpt lat="37.5712023" lon="15.0530597"><ele>407.0</ele><time>2026-05-05T18:03:46.083Z</time></trkpt><trkpt lat="37.5711606" lon="15.052979"><ele>406.7142857142857</ele><time>2026-05-05T18:03:50.002Z</time></trkpt><trkpt lat="37.5711233" lon="15.0528972"><ele>406.42857142857144</ele><time>2026-05-05T18:03:54.057Z</time></trkpt><trkpt lat="37.5710869" lon="15.0528255"><ele>406.1428571428571</ele><time>2026-05-05T18:03:58.01Z</time></trkpt><trkpt lat="37.5710381" lon="15.0527623"><ele>405.8571428571429</ele><time>2026-05-05T18:04:02.059Z</time></trkpt><trkpt lat="37.5709682" lon="15.052758"><ele>405.57142857142856</ele><time>2026-05-05T18:04:06.017Z</time></trkpt><trkpt lat="37.5709097" lon="15.0527951"><ele>405.2857142857143</ele><time>2026-05-05T18:04:09.059Z</time></trkpt><trkpt lat="37.5708423" lon="15.0528421"><ele>405.0</ele><time>2026-05-05T18:04:12.995Z</time></trkpt><trkpt lat="37.5707787" lon="15.0528856"><ele>404.99999999999994</ele><time>2026-05-05T18:04:16.001Z</time></trkpt><trkpt lat="37.5707224" lon="15.0529329"><ele>405.0</ele><time>2026-05-05T18:04:19.017Z</time></trkpt><trkpt lat="37.5706517" lon="15.0529838"><ele>405.0</ele><time>2026-05-05T18:04:22.969Z</time></trkpt><trkpt lat="37.5705951" lon="15.0530282"><ele>405.0</ele><time>2026-05-05T18:04:26.061Z</time></trkpt><trkpt lat="37.5705407" lon="15.0531044"><ele>405.0</ele><time>2026-05-05T18:04:29.995Z</time></trkpt><trkpt lat="37.5705414" lon="15.0532024"><ele>404.99999999999994</ele><time>2026-05-05T18:04:34.019Z</time></trkpt><trkpt lat="37.5705569" lon="15.05328"><ele>405.0</ele><time>2026-05-05T18:04:37.01Z</time></trkpt><trkpt lat="37.5705874" lon="15.0533588"><ele>404.71428571428567</ele><time>2026-05-05T18:04:40.024Z</time></trkpt><trkpt lat="37.5706286" lon="15.0534389"><ele>404.42857142857144</ele><time>2026-05-05T18:04:43.043Z</time></trkpt><trkpt lat="37.5706689" lon="15.0535088"><ele>404.1428571428571</ele><time>2026-05-05T18:04:45.981Z</time></trkpt><trkpt lat="37.5707145" lon="15.0535936"><ele>403.85714285714283</ele><time>2026-05-05T18:04:50.099Z</time></trkpt><trkpt lat="37.5707528" lon="15.0536723"><ele>403.57142857142856</ele><time>2026-05-05T18:04:54.099Z</time></trkpt><trkpt lat="37.5707952" lon="15.0537481"><ele>403.2857142857143</ele><time>2026-05-05T18:04:58.017Z</time></trkpt><trkpt lat="37.5708263" lon="15.0538183"><ele>403.0</ele><time>2026-05-05T18:05:01.083Z</time></trkpt><trkpt lat="37.5708695" lon="15.0539047"><ele>403.0</ele><time>2026-05-05T18:05:05.059Z</time></trkpt><trkpt lat="37.5709181" lon="15.0539881"><ele>403.0</ele><time>2026-05-05T18:05:09.041Z</time></trkpt><trkpt lat="37.5709712" lon="15.0540359"><ele>403.0</ele><time>2026-05-05T18:05:12.993Z</time></trkpt><trkpt lat="37.5710316" lon="15.0540082"><ele>403.0</ele><time>2026-05-05T18:05:17.985Z</time></trkpt><trkpt lat="37.5710955" lon="15.0539638"><ele>403.0</ele><time>2026-05-05T18:05:20.899Z</time></trkpt><trkpt lat="37.5711637" lon="15.0539102"><ele>403.0</ele><time>2026-05-05T18:05:24.017Z</time></trkpt><trkpt lat="37.5712205" lon="15.0538643"><ele>403.0</ele><time>2026-05-05T18:05:27.083Z</time></trkpt><trkpt lat="37.5712874" lon="15.0538067"><ele>403.5714285714286</ele><time>2026-05-05T18:05:30.985Z</time></trkpt><trkpt lat="37.5713432" lon="15.053756"><ele>404.1428571428571</ele><time>2026-05-05T18:05:34.098Z</time></trkpt><trkpt lat="37.5714013" lon="15.0537044"><ele>404.7142857142857</ele><time>2026-05-05T18:05:37.059Z</time></trkpt><trkpt lat="37.571465" lon="15.053638"><ele>405.28571428571433</ele><time>2026-05-05T18:05:40.323Z</time></trkpt><trkpt lat="37.5715061" lon="15.0535609"><ele>405.8571428571429</ele><time>2026-05-05T18:05:45.026Z</time></trkpt><trkpt lat="37.5714882" lon="15.0534809"><ele>406.42857142857144</ele><time>2026-05-05T18:05:50.017Z</time></trkpt><trkpt lat="37.5714508" lon="15.0534166"><ele>407.0</ele><time>2026-05-05T18:05:52.098Z</time></trkpt><trkpt lat="37.5714043" lon="15.0533521"><ele>407.00000000000006</ele><time>2026-05-05T18:05:53.97Z</time></trkpt><trkpt lat="37.5713616" lon="15.0532915"><ele>407.0</ele><time>2026-05-05T18:05:56.06Z</time></trkpt><trkpt lat="37.5713144" lon="15.0532051"><ele>407.0</ele><time>2026-05-05T18:05:58.996Z</time></trkpt><trkpt lat="37.571282" lon="15.0531352"><ele>407.0</ele><time>2026-05-05T18:06:01.979Z</time></trkpt><trkpt lat="37.5712461" lon="15.0530579"><ele>407.0</ele><time>2026-05-05T18:06:04.994Z</time></trkpt><trkpt lat="37.5712131" lon="15.0529773"><ele>407.00000000000006</ele><time>2026-05-05T18:06:08.009Z</time></trkpt><trkpt lat="37.5711643" lon="15.0529036"><ele>407.0</ele><time>2026-05-05T18:06:12.066Z</time></trkpt><trkpt lat="37.571112" lon="15.0528345"><ele>406.7142857142857</ele><time>2026-05-05T18:06:16.018Z</time></trkpt><trkpt lat="37.5710604" lon="15.0527617"><ele>406.42857142857144</ele><time>2026-05-05T18:06:20.073Z</time></trkpt><trkpt lat="37.5709882" lon="15.0527461"><ele>406.1428571428571</ele><time>2026-05-05T18:06:24.024Z</time></trkpt><trkpt lat="37.570929" lon="15.0527843"><ele>405.8571428571429</ele><time>2026-05-05T18:06:27.04Z</time></trkpt><trkpt lat="37.5708626" lon="15.0528332"><ele>405.57142857142856</ele><time>2026-05-05T18:06:30.994Z</time></trkpt><trkpt lat="37.5707919" lon="15.0528867"><ele>405.2857142857143</ele><time>2026-05-05T18:06:35.06Z</time></trkpt><trkpt lat="37.5707359" lon="15.0529294"><ele>405.0</ele><time>2026-05-05T18:06:37.978Z</time></trkpt><trkpt lat="37.5706662" lon="15.0529844"><ele>404.99999999999994</ele><time>2026-05-05T18:06:42.016Z</time></trkpt><trkpt lat="37.5705968" lon="15.0530353"><ele>405.0</ele><time>2026-05-05T18:06:45.969Z</time></trkpt><trkpt lat="37.5705475" lon="15.0530918"><ele>405.0</ele><time>2026-05-05T18:06:48.984Z</time></trkpt><trkpt lat="37.5705373" lon="15.0531757"><ele>405.0</ele><time>2026-05-05T18:06:52.099Z</time></trkpt><trkpt lat="37.570586" lon="15.0532627"><ele>405.0</ele><time>2026-05-05T18:06:56.06Z</time></trkpt><trkpt lat="37.5705917" lon="15.0533552"><ele>404.99999999999994</ele><time>2026-05-05T18:07:00.008Z</time></trkpt><trkpt lat="37.5706182" lon="15.0534403"><ele>405.0</ele><time>2026-05-05T18:07:03.019Z</time></trkpt><trkpt lat="37.5706641" lon="15.0535277"><ele>404.71428571428567</ele><time>2026-05-05T18:07:07.059Z</time></trkpt><trkpt lat="37.5707047" lon="15.0536073"><ele>404.42857142857144</ele><time>2026-05-05T18:07:09.964Z</time></trkpt><trkpt lat="37.570746" lon="15.0536915"><ele>404.1428571428571</ele><time>2026-05-05T18:07:13.009Z</time></trkpt><trkpt lat="37.5707856" lon="15.0537712"><ele>403.85714285714283</ele><time>2026-05-05T18:07:16.026Z</time></trkpt><trkpt lat="37.5708188" lon="15.0538453"><ele>403.57142857142856</ele><time>2026-05-05T18:07:19.102Z</time></trkpt><trkpt lat="37.5708604" lon="15.0539285"><ele>403.2857142857143</ele><time>2026-05-05T18:07:23.019Z</time></trkpt><trkpt lat="37.5709019" lon="15.054001"><ele>403.0</ele><time>2026-05-05T18:07:27.019Z</time></trkpt><trkpt lat="37.57096" lon="15.0540568"><ele>403.0</ele><time>2026-05-05T18:07:30.979Z</time></trkpt><trkpt lat="37.5710226" lon="15.054046"><ele>403.0</ele><time>2026-05-05T18:07:36.099Z</time></trkpt><trkpt lat="37.5710767" lon="15.0540045"><ele>403.0</ele><time>2026-05-05T18:07:39.044Z</time></trkpt><trkpt lat="37.5711286" lon="15.0539545"><ele>403.0</ele><time>2026-05-05T18:07:40.984Z</time></trkpt><trkpt lat="37.571185" lon="15.0539095"><ele>403.0</ele><time>2026-05-05T18:07:43.065Z</time></trkpt><trkpt lat="37.5712371" lon="15.0538645"><ele>403.0</ele><time>2026-05-05T18:07:45.041Z</time></trkpt><trkpt lat="37.5713003" lon="15.0537949"><ele>403.0</ele><time>2026-05-05T18:07:48.057Z</time></trkpt><trkpt lat="37.5713595" lon="15.0537421"><ele>403.5714285714286</ele><time>2026-05-05T18:07:51.073Z</time></trkpt><trkpt lat="37.5714254" lon="15.0536817"><ele>404.1428571428571</ele><time>2026-05-05T18:07:53.995Z</time></trkpt><trkpt lat="37.5714759" lon="15.0536246"><ele>404.7142857142857</ele><time>2026-05-05T18:07:57.001Z</time></trkpt><trkpt lat="37.5715206" lon="15.053563"><ele>405.28571428571433</ele><time>2026-05-05T18:08:00.017Z</time></trkpt><trkpt lat="37.5714508" lon="15.0535126"><ele>405.8571428571429</ele><time>2026-05-05T18:08:06.049Z</time></trkpt><trkpt lat="37.5714271" lon="15.0534282"><ele>406.42857142857144</ele><time>2026-05-05T18:08:08.025Z</time></trkpt><trkpt lat="37.5714032" lon="15.0533476"><ele>407.0</ele><time>2026-05-05T18:08:10.019Z</time></trkpt><trkpt lat="37.5713501" lon="15.0532569"><ele>407.3333333333333</ele><time>2026-05-05T18:08:13.017Z</time></trkpt><trkpt lat="37.5713045" lon="15.053174"><ele>407.66666666666663</ele><time>2026-05-05T18:08:16.033Z</time></trkpt><trkpt lat="37.5712551" lon="15.0531024"><ele>408.0</ele><time>2026-05-05T18:08:19.049Z</time></trkpt><trkpt lat="37.5712016" lon="15.0530193"><ele>408.33333333333337</ele><time>2026-05-05T18:08:23.059Z</time></trkpt><trkpt lat="37.571171" lon="15.0529177"><ele>408.6666666666667</ele><time>2026-05-05T18:08:27.035Z</time></trkpt><trkpt lat="37.5711378" lon="15.0528271"><ele>409.0</ele><time>2026-05-05T18:08:31.035Z</time></trkpt><trkpt lat="37.5710807" lon="15.0527732"><ele>408.4285714285714</ele><time>2026-05-05T18:08:35.004Z</time></trkpt><trkpt lat="37.5709975" lon="15.0527818"><ele>407.8571428571429</ele><time>2026-05-05T18:08:39.002Z</time></trkpt><trkpt lat="37.5709362" lon="15.0528041"><ele>407.2857142857143</ele><time>2026-05-05T18:08:42.032Z</time></trkpt><trkpt lat="37.5708741" lon="15.0528454"><ele>406.71428571428567</ele><time>2026-05-05T18:08:45.044Z</time></trkpt><trkpt lat="37.5708083" lon="15.0528986"><ele>406.1428571428571</ele><time>2026-05-05T18:08:49.044Z</time></trkpt><trkpt lat="37.570753" lon="15.0529399"><ele>405.57142857142856</ele><time>2026-05-05T18:08:52.017Z</time></trkpt><trkpt lat="37.5706996" lon="15.0529827"><ele>405.0</ele><time>2026-05-05T18:08:55.033Z</time></trkpt><trkpt lat="37.570645" lon="15.0530239"><ele>404.99999999999994</ele><time>2026-05-05T18:08:58.043Z</time></trkpt><trkpt lat="37.5705828" lon="15.0530783"><ele>405.0</ele><time>2026-05-05T18:09:02Z</time></trkpt><trkpt lat="37.5705413" lon="15.0531612"><ele>405.0</ele><time>2026-05-05T18:09:05.952Z</time></trkpt><trkpt lat="37.5705731" lon="15.0532608"><ele>405.0</ele><time>2026-05-05T18:09:10.045Z</time></trkpt><trkpt lat="37.5705923" lon="15.05335"><ele>405.0</ele><time>2026-05-05T18:09:13.284Z</time></trkpt><trkpt lat="37.5706235" lon="15.0534252"><ele>404.99999999999994</ele><time>2026-05-05T18:09:16.565Z</time></trkpt><trkpt lat="37.5706574" lon="15.0534924"><ele>405.0</ele><time>2026-05-05T18:09:19.484Z</time></trkpt><trkpt lat="37.5707032" lon="15.0535799"><ele>404.71428571428567</ele><time>2026-05-05T18:09:23.009Z</time></trkpt><trkpt lat="37.5707411" lon="15.053655"><ele>404.42857142857144</ele><time>2026-05-05T18:09:25.923Z</time></trkpt><trkpt lat="37.5707818" lon="15.053742"><ele>404.1428571428571</ele><time>2026-05-05T18:09:30.076Z</time></trkpt><trkpt lat="37.5708179" lon="15.0538087"><ele>403.85714285714283</ele><time>2026-05-05T18:09:34.034Z</time></trkpt><trkpt lat="37.5708448" lon="15.0538939"><ele>403.57142857142856</ele><time>2026-05-05T18:09:38.089Z</time></trkpt><trkpt lat="37.5708875" lon="15.053959"><ele>403.2857142857143</ele><time>2026-05-05T18:09:41.001Z</time></trkpt><trkpt lat="37.5709389" lon="15.0540285"><ele>403.0</ele><time>2026-05-05T18:09:45.994Z</time></trkpt><trkpt lat="37.571001" lon="15.0540893"><ele>403.00000000000006</ele><time>2026-05-05T18:09:50.05Z</time></trkpt><trkpt lat="37.5710398" lon="15.0539967"><ele>403.0</ele><time>2026-05-05T18:09:50.985Z</time></trkpt><trkpt lat="37.5711104" lon="15.0539384"><ele>403.0</ele><time>2026-05-05T18:09:54.058Z</time></trkpt><trkpt lat="37.5711669" lon="15.053882"><ele>403.0</ele><time>2026-05-05T18:09:57.003Z</time></trkpt><trkpt lat="37.5712227" lon="15.0538061"><ele>403.00000000000006</ele><time>2026-05-05T18:09:59.979Z</time></trkpt><trkpt lat="37.5712749" lon="15.0537525"><ele>403.0</ele><time>2026-05-05T18:10:02.963Z</time></trkpt><trkpt lat="37.5713406" lon="15.0537012"><ele>403.6666666666667</ele><time>2026-05-05T18:10:08.083Z</time></trkpt><trkpt lat="37.5713983" lon="15.0536505"><ele>404.33333333333337</ele><time>2026-05-05T18:10:11.993Z</time></trkpt><trkpt lat="37.5714506" lon="15.0536032"><ele>405.0</ele><time>2026-05-05T18:10:15.009Z</time></trkpt><trkpt lat="37.5714749" lon="15.0535284"><ele>405.66666666666663</ele><time>2026-05-05T18:10:20.001Z</time></trkpt><trkpt lat="37.5715397" lon="15.0535205"><ele>406.3333333333333</ele><time>2026-05-05T18:10:34.061Z</time></trkpt><trkpt lat="37.571475" lon="15.0534453"><ele>407.0</ele><time>2026-05-05T18:10:35.081Z</time></trkpt><trkpt lat="37.5714025" lon="15.0533051"><ele>407.3333333333333</ele><time>2026-05-05T18:10:38.058Z</time></trkpt><trkpt lat="37.5713604" lon="15.0532165"><ele>407.66666666666663</ele><time>2026-05-05T18:10:40.074Z</time></trkpt><trkpt lat="37.5713214" lon="15.0531351"><ele>408.0</ele><time>2026-05-05T18:10:43.089Z</time></trkpt><trkpt lat="37.5712742" lon="15.0530398"><ele>408.33333333333337</ele><time>2026-05-05T18:10:46.099Z</time></trkpt><trkpt lat="37.5712192" lon="15.0529594"><ele>408.6666666666667</ele><time>2026-05-05T18:10:49.059Z</time></trkpt><trkpt lat="37.5711828" lon="15.0528839"><ele>409.0</ele><time>2026-05-05T18:10:51.98Z</time></trkpt><trkpt lat="37.5711269" lon="15.0528077"><ele>408.4285714285714</ele><time>2026-05-05T18:10:55.049Z</time></trkpt><trkpt lat="37.5710905" lon="15.0527409"><ele>407.8571428571429</ele><time>2026-05-05T18:10:57.076Z</time></trkpt><trkpt lat="37.5710237" lon="15.052688"><ele>407.2857142857143</ele><time>2026-05-05T18:11:00.699Z</time></trkpt><trkpt lat="37.5709607" lon="15.0527056"><ele>406.71428571428567</ele><time>2026-05-05T18:11:03.924Z</time></trkpt><trkpt lat="37.5709" lon="15.0527562"><ele>406.1428571428571</ele><time>2026-05-05T18:11:07.009Z</time></trkpt><trkpt lat="37.5708398" lon="15.0528093"><ele>405.57142857142856</ele><time>2026-05-05T18:11:10.045Z</time></trkpt><trkpt lat="37.5707874" lon="15.0528545"><ele>405.0</ele><time>2026-05-05T18:11:12.965Z</time></trkpt><trkpt lat="37.5707264" lon="15.0529027"><ele>404.99999999999994</ele><time>2026-05-05T18:11:16.058Z</time></trkpt><trkpt lat="37.5706719" lon="15.052955"><ele>405.0</ele><time>2026-05-05T18:11:19.073Z</time></trkpt><trkpt lat="37.5706054" lon="15.0530095"><ele>405.0</ele><time>2026-05-05T18:11:23.025Z</time></trkpt><trkpt lat="37.5705314" lon="15.0530651"><ele>405.0</ele><time>2026-05-05T18:11:27.115Z</time></trkpt><trkpt lat="37.5704912" lon="15.053151"><ele>405.0</ele><time>2026-05-05T18:11:31.076Z</time></trkpt><trkpt lat="37.570521" lon="15.0532268"><ele>404.99999999999994</ele><time>2026-05-05T18:11:34.02Z</time></trkpt><trkpt lat="37.5705595" lon="15.0532974"><ele>405.0</ele><time>2026-05-05T18:11:36.967Z</time></trkpt><trkpt lat="37.5706009" lon="15.0533669"><ele>404.71428571428567</ele><time>2026-05-05T18:11:40.083Z</time></trkpt><trkpt lat="37.5706463" lon="15.0534506"><ele>404.42857142857144</ele><time>2026-05-05T18:11:44.033Z</time></trkpt><trkpt lat="37.5706856" lon="15.0535367"><ele>404.1428571428571</ele><time>2026-05-05T18:11:47.985Z</time></trkpt><trkpt lat="37.5707231" lon="15.0536118"><ele>403.85714285714283</ele><time>2026-05-05T18:11:51.019Z</time></trkpt><trkpt lat="37.5707565" lon="15.053688"><ele>403.57142857142856</ele><time>2026-05-05T18:11:54.061Z</time></trkpt><trkpt lat="37.5707965" lon="15.0537502"><ele>403.2857142857143</ele><time>2026-05-05T18:11:57.032Z</time></trkpt><trkpt lat="37.5708284" lon="15.0538295"><ele>403.0</ele><time>2026-05-05T18:12:03.064Z</time></trkpt><trkpt lat="37.5708809" lon="15.0538739"><ele>403.00000000000006</ele><time>2026-05-05T18:12:08.056Z</time></trkpt><trkpt lat="37.5709067" lon="15.0539619"><ele>403.0</ele><time>2026-05-05T18:12:13.045Z</time></trkpt><trkpt lat="37.5709399" lon="15.0540321"><ele>403.0</ele><time>2026-05-05T18:12:16.043Z</time></trkpt><trkpt lat="37.5710113" lon="15.054057"><ele>403.0</ele><time>2026-05-05T18:12:20.94Z</time></trkpt><trkpt lat="37.5711209" lon="15.0539632"><ele>403.00000000000006</ele><time>2026-05-05T18:12:25.004Z</time></trkpt><trkpt lat="37.5711712" lon="15.0539115"><ele>403.0</ele><time>2026-05-05T18:12:26.98Z</time></trkpt><trkpt lat="37.5712456" lon="15.0538589"><ele>403.6666666666667</ele><time>2026-05-05T18:12:30.043Z</time></trkpt><trkpt lat="37.5713078" lon="15.0538074"><ele>404.33333333333337</ele><time>2026-05-05T18:12:34.053Z</time></trkpt><trkpt lat="37.5713676" lon="15.0537616"><ele>405.0</ele><time>2026-05-05T18:12:38.005Z</time></trkpt><trkpt lat="37.5714294" lon="15.0537064"><ele>405.66666666666663</ele><time>2026-05-05T18:12:42.062Z</time></trkpt><trkpt lat="37.5714864" lon="15.0536489"><ele>406.3333333333333</ele><time>2026-05-05T18:12:45.077Z</time></trkpt><trkpt lat="37.5715213" lon="15.0535665"><ele>407.0</ele><time>2026-05-05T18:12:50.069Z</time></trkpt><trkpt lat="37.571473" lon="15.0534696"><ele>407.00000000000006</ele><time>2026-05-05T18:12:54.939Z</time></trkpt><trkpt lat="37.571442" lon="15.053397"><ele>407.0</ele><time>2026-05-05T18:12:57.037Z</time></trkpt><trkpt lat="37.5714053" lon="15.0533299"><ele>407.0</ele><time>2026-05-05T18:12:59.013Z</time></trkpt><trkpt lat="37.5713531" lon="15.0532475"><ele>407.0</ele><time>2026-05-05T18:13:02.029Z</time></trkpt><trkpt lat="37.5713068" lon="15.0531758"><ele>407.0</ele><time>2026-05-05T18:13:05.044Z</time></trkpt><trkpt lat="37.5712506" lon="15.0531035"><ele>407.00000000000006</ele><time>2026-05-05T18:13:09.084Z</time></trkpt><trkpt lat="37.5712006" lon="15.0530267"><ele>407.0</ele><time>2026-05-05T18:13:13.988Z</time></trkpt><trkpt lat="37.5711733" lon="15.0529218"><ele>406.7142857142857</ele><time>2026-05-05T18:13:18.044Z</time></trkpt><trkpt lat="37.5711464" lon="15.0528467"><ele>406.42857142857144</ele><time>2026-05-05T18:13:21.061Z</time></trkpt><trkpt lat="37.5710942" lon="15.0527728"><ele>406.1428571428571</ele><time>2026-05-05T18:13:25.013Z</time></trkpt><trkpt lat="37.5710377" lon="15.0527142"><ele>405.8571428571429</ele><time>2026-05-05T18:13:28.957Z</time></trkpt><trkpt lat="37.5709723" lon="15.0527216"><ele>405.57142857142856</ele><time>2026-05-05T18:13:32.085Z</time></trkpt><trkpt lat="37.5709174" lon="15.0527673"><ele>405.2857142857143</ele><time>2026-05-05T18:13:34.998Z</time></trkpt><trkpt lat="37.5708595" lon="15.0528102"><ele>405.0</ele><time>2026-05-05T18:13:38.003Z</time></trkpt><trkpt lat="37.5708057" lon="15.0528549"><ele>404.99999999999994</ele><time>2026-05-05T18:13:41.029Z</time></trkpt><trkpt lat="37.5707379" lon="15.0529036"><ele>405.0</ele><time>2026-05-05T18:13:44.981Z</time></trkpt><trkpt lat="37.5706765" lon="15.0529534"><ele>405.0</ele><time>2026-05-05T18:13:48.899Z</time></trkpt><trkpt lat="37.5706188" lon="15.0529955"><ele>405.0</ele><time>2026-05-05T18:13:52.053Z</time></trkpt><trkpt lat="37.5705614" lon="15.0530404"><ele>405.0</ele><time>2026-05-05T18:13:55.058Z</time></trkpt><trkpt lat="37.5705188" lon="15.0531038"><ele>404.99999999999994</ele><time>2026-05-05T18:13:57.982Z</time></trkpt><trkpt lat="37.5705311" lon="15.0531885"><ele>405.0</ele><time>2026-05-05T18:14:00.997Z</time></trkpt><trkpt lat="37.5705574" lon="15.0532658"><ele>404.71428571428567</ele><time>2026-05-05T18:14:04.013Z</time></trkpt><trkpt lat="37.5705862" lon="15.0533454"><ele>404.42857142857144</ele><time>2026-05-05T18:14:07.02Z</time></trkpt><trkpt lat="37.5706273" lon="15.0534416"><ele>404.1428571428571</ele><time>2026-05-05T18:14:11.061Z</time></trkpt><trkpt lat="37.5706707" lon="15.053523"><ele>403.85714285714283</ele><time>2026-05-05T18:14:15.083Z</time></trkpt><trkpt lat="37.5707094" lon="15.0536009"><ele>403.57142857142856</ele><time>2026-05-05T18:14:19.46Z</time></trkpt><trkpt lat="37.5707415" lon="15.0536697"><ele>403.2857142857143</ele><time>2026-05-05T18:14:22.715Z</time></trkpt><trkpt lat="37.5707777" lon="15.05375"><ele>403.0</ele><time>2026-05-05T18:14:26.019Z</time></trkpt><trkpt lat="37.5708116" lon="15.0538195"><ele>403.0</ele><time>2026-05-05T18:14:28.956Z</time></trkpt><trkpt lat="37.5708467" lon="15.0538906"><ele>403.0</ele><time>2026-05-05T18:14:31.989Z</time></trkpt><trkpt lat="37.5708837" lon="15.053956"><ele>403.0</ele><time>2026-05-05T18:14:35.005Z</time></trkpt><trkpt lat="37.5709337" lon="15.0540252"><ele>403.0</ele><time>2026-05-05T18:14:39.061Z</time></trkpt><trkpt lat="37.5709978" lon="15.0540457"><ele>403.0</ele><time>2026-05-05T18:14:44.053Z</time></trkpt><trkpt lat="37.5710609" lon="15.0540254"><ele>403.0</ele><time>2026-05-05T18:14:47.979Z</time></trkpt><trkpt lat="37.5711369" lon="15.0539804"><ele>403.0</ele><time>2026-05-05T18:14:51.979Z</time></trkpt><trkpt lat="37.5711937" lon="15.0539044"><ele>403.5714285714286</ele><time>2026-05-05T18:14:52.997Z</time></trkpt><trkpt lat="37.5712516" lon="15.0538379"><ele>404.1428571428571</ele><time>2026-05-05T18:14:55.078Z</time></trkpt><trkpt lat="37.5713175" lon="15.0537843"><ele>404.7142857142857</ele><time>2026-05-05T18:14:57.989Z</time></trkpt><trkpt lat="37.5713812" lon="15.0537304"><ele>405.28571428571433</ele><time>2026-05-05T18:15:01.005Z</time></trkpt><trkpt lat="37.5714413" lon="15.0536779"><ele>405.8571428571429</ele><time>2026-05-05T18:15:04.1Z</time></trkpt><trkpt lat="37.5714943" lon="15.0536311"><ele>406.42857142857144</ele><time>2026-05-05T18:15:07.06Z</time></trkpt><trkpt lat="37.5715404" lon="15.053561"><ele>407.0</ele><time>2026-05-05T18:15:10.019Z</time></trkpt><trkpt lat="37.5714782" lon="15.0535008"><ele>407.00000000000006</ele><time>2026-05-05T18:15:18.939Z</time></trkpt><trkpt lat="37.571454" lon="15.0534136"><ele>407.0</ele><time>2026-05-05T18:15:21.077Z</time></trkpt><trkpt lat="37.5714071" lon="15.0533331"><ele>407.0</ele><time>2026-05-05T18:15:23.989Z</time></trkpt><trkpt lat="37.5713508" lon="15.0532684"><ele>407.0</ele><time>2026-05-05T18:15:25.938Z</time></trkpt><trkpt lat="37.5713255" lon="15.0531939"><ele>407.0</ele><time>2026-05-05T18:15:30.021Z</time></trkpt><trkpt lat="37.571282" lon="15.0531256"><ele>407.00000000000006</ele><time>2026-05-05T18:15:33.037Z</time></trkpt><trkpt lat="37.5712416" lon="15.0530627"><ele>407.0</ele><time>2026-05-05T18:15:36.052Z</time></trkpt><trkpt lat="37.5711992" lon="15.0529947"><ele>406.66666666666663</ele><time>2026-05-05T18:15:39.069Z</time></trkpt><trkpt lat="37.5711683" lon="15.0529047"><ele>406.3333333333333</ele><time>2026-05-05T18:15:43.021Z</time></trkpt><trkpt lat="37.5711224" lon="15.0528221"><ele>406.0</ele><time>2026-05-05T18:15:46.973Z</time></trkpt><trkpt lat="37.5710653" lon="15.0527733"><ele>405.66666666666663</ele><time>2026-05-05T18:15:51.03Z</time></trkpt><trkpt lat="37.5710045" lon="15.0527396"><ele>405.3333333333333</ele><time>2026-05-05T18:15:55.075Z</time></trkpt><trkpt lat="37.5709278" lon="15.0527778"><ele>405.0</ele><time>2026-05-05T18:15:59.037Z</time></trkpt><trkpt lat="37.5708614" lon="15.0528232"><ele>404.99999999999994</ele><time>2026-05-05T18:16:02.053Z</time></trkpt><trkpt lat="37.5707917" lon="15.0528832"><ele>405.0</ele><time>2026-05-05T18:16:05.069Z</time></trkpt><trkpt lat="37.5707195" lon="15.052924"><ele>405.0</ele><time>2026-05-05T18:16:07.981Z</time></trkpt><trkpt lat="37.570664" lon="15.0529745"><ele>405.0</ele><time>2026-05-05T18:16:10.979Z</time></trkpt><trkpt lat="37.5706089" lon="15.0530224"><ele>405.0</ele><time>2026-05-05T18:16:14.013Z</time></trkpt><trkpt lat="37.5705565" lon="15.0530709"><ele>404.99999999999994</ele><time>2026-05-05T18:16:17.019Z</time></trkpt><trkpt lat="37.5705193" lon="15.0531405"><ele>405.0</ele><time>2026-05-05T18:16:20.045Z</time></trkpt><trkpt lat="37.5705208" lon="15.053221"><ele>405.0</ele><time>2026-05-05T18:16:22.98Z</time></trkpt><trkpt lat="37.5705589" lon="15.0533099"><ele>403.0</ele><time>2026-05-05T18:16:26.078Z</time></trkpt><trkpt lat="37.5706105" lon="15.0533998"><ele>403.0</ele><time>2026-05-05T18:16:28.99Z</time></trkpt><trkpt lat="37.5706476" lon="15.0534835"><ele>403.0</ele><time>2026-05-05T18:16:32.005Z</time></trkpt><trkpt lat="37.5706959" lon="15.0535708"><ele>403.0</ele><time>2026-05-05T18:16:35.022Z</time></trkpt><trkpt lat="37.5707554" lon="15.0536198"><ele>403.0</ele><time>2026-05-05T18:16:38.974Z</time></trkpt></trkseg></trk></gpx>